<?xml version="1.0" encoding="UTF-8" standalone="no" ?>
<gpx xmlns="http://www.topografix.com/GPX/1/1" xmlns:xsi="http://www.w3.org/2001/XMLSchema-instance" xsi:schemaLocation="http://www.topografix.com/GPX/1/1 http://www.topografix.com/GPX/1/1/gpx.xsd" version="1.1" creator="VisuGPX - https://www.visugpx.com">
  <metadata>
    <name>Veigy Christian é11 oct. 2022</name>
    <desc><![CDATA[Veigy Christian 211 oct. 2022 à 13:42:07

]]></desc>
  </metadata>
  <trk>
    <name><![CDATA[11 oct. 2022 à 13:42:07]]></name>
    <cmt><![CDATA[11 oct. 2022 à 13:42:07]]></cmt>
    <trkseg>
      <trkpt lat="46.26819" lon="6.2578">
        <ele>431</ele>
        <time>2022-10-11T11:42:07Z</time>
      </trkpt>
      <trkpt lat="46.26823" lon="6.25786">
        <ele>426</ele>
        <time>2022-10-11T11:49:47Z</time>
      </trkpt>
      <trkpt lat="46.26827" lon="6.25781">
        <ele>426</ele>
        <time>2022-10-11T11:49:53Z</time>
      </trkpt>
      <trkpt lat="46.26829" lon="6.25774">
        <ele>426</ele>
        <time>2022-10-11T11:50:00Z</time>
      </trkpt>
      <trkpt lat="46.26832" lon="6.25768">
        <ele>426</ele>
        <time>2022-10-11T11:50:03Z</time>
      </trkpt>
      <trkpt lat="46.26833" lon="6.25751">
        <ele>426</ele>
        <time>2022-10-11T11:50:10Z</time>
      </trkpt>
      <trkpt lat="46.2684" lon="6.25746">
        <ele>426</ele>
        <time>2022-10-11T11:50:51Z</time>
      </trkpt>
      <trkpt lat="46.26843" lon="6.25752">
        <ele>426</ele>
        <time>2022-10-11T11:50:54Z</time>
      </trkpt>
      <trkpt lat="46.26845" lon="6.2577">
        <ele>427</ele>
        <time>2022-10-11T11:51:00Z</time>
      </trkpt>
      <trkpt lat="46.2685" lon="6.25787">
        <ele>427</ele>
        <time>2022-10-11T11:51:04Z</time>
      </trkpt>
      <trkpt lat="46.26854" lon="6.25794">
        <ele>427</ele>
        <time>2022-10-11T11:51:06Z</time>
      </trkpt>
      <trkpt lat="46.26864" lon="6.25805">
        <ele>427</ele>
        <time>2022-10-11T11:51:10Z</time>
      </trkpt>
      <trkpt lat="46.26884" lon="6.25815">
        <ele>428</ele>
        <time>2022-10-11T11:51:16Z</time>
      </trkpt>
      <trkpt lat="46.2689" lon="6.25816">
        <ele>428</ele>
        <time>2022-10-11T11:51:18Z</time>
      </trkpt>
      <trkpt lat="46.26903" lon="6.25812">
        <ele>429</ele>
        <time>2022-10-11T11:51:27Z</time>
      </trkpt>
      <trkpt lat="46.26911" lon="6.25815">
        <ele>429</ele>
        <time>2022-10-11T11:51:41Z</time>
      </trkpt>
      <trkpt lat="46.26915" lon="6.25822">
        <ele>429</ele>
        <time>2022-10-11T11:51:44Z</time>
      </trkpt>
      <trkpt lat="46.26911" lon="6.25831">
        <ele>429</ele>
        <time>2022-10-11T11:51:47Z</time>
      </trkpt>
      <trkpt lat="46.26907" lon="6.25835">
        <ele>429</ele>
        <time>2022-10-11T11:51:49Z</time>
      </trkpt>
      <trkpt lat="46.26909" lon="6.25845">
        <ele>429</ele>
        <time>2022-10-11T11:51:55Z</time>
      </trkpt>
      <trkpt lat="46.26918" lon="6.25856">
        <ele>430</ele>
        <time>2022-10-11T11:52:02Z</time>
      </trkpt>
      <trkpt lat="46.26942" lon="6.25877">
        <ele>430</ele>
        <time>2022-10-11T11:52:12Z</time>
      </trkpt>
      <trkpt lat="46.26947" lon="6.25877">
        <ele>430</ele>
        <time>2022-10-11T11:52:14Z</time>
      </trkpt>
      <trkpt lat="46.26962" lon="6.25875">
        <ele>430</ele>
        <time>2022-10-11T11:52:20Z</time>
      </trkpt>
      <trkpt lat="46.26968" lon="6.25875">
        <ele>430</ele>
        <time>2022-10-11T11:52:23Z</time>
      </trkpt>
      <trkpt lat="46.26974" lon="6.25872">
        <ele>430</ele>
        <time>2022-10-11T11:52:26Z</time>
      </trkpt>
      <trkpt lat="46.26973" lon="6.25862">
        <ele>430</ele>
        <time>2022-10-11T11:53:38Z</time>
      </trkpt>
      <trkpt lat="46.26969" lon="6.25855">
        <ele>430</ele>
        <time>2022-10-11T11:53:42Z</time>
      </trkpt>
      <trkpt lat="46.26929" lon="6.25826">
        <ele>431</ele>
        <time>2022-10-11T11:53:58Z</time>
      </trkpt>
      <trkpt lat="46.26925" lon="6.2582">
        <ele>431</ele>
        <time>2022-10-11T11:54:00Z</time>
      </trkpt>
      <trkpt lat="46.26922" lon="6.25812">
        <ele>431</ele>
        <time>2022-10-11T11:54:03Z</time>
      </trkpt>
      <trkpt lat="46.26918" lon="6.25819">
        <ele>431</ele>
        <time>2022-10-11T11:54:50Z</time>
      </trkpt>
      <trkpt lat="46.26916" lon="6.25828">
        <ele>431</ele>
        <time>2022-10-11T11:55:56Z</time>
      </trkpt>
      <trkpt lat="46.26908" lon="6.25837">
        <ele>431</ele>
        <time>2022-10-11T11:56:04Z</time>
      </trkpt>
      <trkpt lat="46.26908" lon="6.25842">
        <ele>431</ele>
        <time>2022-10-11T11:56:07Z</time>
      </trkpt>
      <trkpt lat="46.26913" lon="6.25841">
        <ele>431</ele>
        <time>2022-10-11T11:56:12Z</time>
      </trkpt>
      <trkpt lat="46.26918" lon="6.25821">
        <ele>431</ele>
        <time>2022-10-11T11:56:25Z</time>
      </trkpt>
      <trkpt lat="46.2692" lon="6.25814">
        <ele>432</ele>
        <time>2022-10-11T11:56:29Z</time>
      </trkpt>
      <trkpt lat="46.26916" lon="6.25816">
        <ele>431</ele>
        <time>2022-10-11T11:57:16Z</time>
      </trkpt>
      <trkpt lat="46.26915" lon="6.25822">
        <ele>431</ele>
        <time>2022-10-11T11:57:19Z</time>
      </trkpt>
      <trkpt lat="46.2691" lon="6.25832">
        <ele>430</ele>
        <time>2022-10-11T11:57:54Z</time>
      </trkpt>
      <trkpt lat="46.26906" lon="6.25839">
        <ele>430</ele>
        <time>2022-10-11T11:57:57Z</time>
      </trkpt>
      <trkpt lat="46.26908" lon="6.25844">
        <ele>431</ele>
        <time>2022-10-11T11:57:59Z</time>
      </trkpt>
      <trkpt lat="46.26912" lon="6.25852">
        <ele>431</ele>
        <time>2022-10-11T11:58:01Z</time>
      </trkpt>
      <trkpt lat="46.26918" lon="6.25888">
        <ele>431</ele>
        <time>2022-10-11T11:58:09Z</time>
      </trkpt>
      <trkpt lat="46.26917" lon="6.25895">
        <ele>431</ele>
        <time>2022-10-11T11:58:11Z</time>
      </trkpt>
      <trkpt lat="46.26916" lon="6.25904">
        <ele>431</ele>
        <time>2022-10-11T11:58:13Z</time>
      </trkpt>
      <trkpt lat="46.26919" lon="6.25912">
        <ele>431</ele>
        <time>2022-10-11T11:58:15Z</time>
      </trkpt>
      <trkpt lat="46.26946" lon="6.25935">
        <ele>431</ele>
        <time>2022-10-11T11:58:25Z</time>
      </trkpt>
      <trkpt lat="46.26951" lon="6.25937">
        <ele>431</ele>
        <time>2022-10-11T11:58:27Z</time>
      </trkpt>
      <trkpt lat="46.26955" lon="6.25941">
        <ele>431</ele>
        <time>2022-10-11T11:58:29Z</time>
      </trkpt>
      <trkpt lat="46.26968" lon="6.25978">
        <ele>431</ele>
        <time>2022-10-11T11:58:39Z</time>
      </trkpt>
      <trkpt lat="46.27016" lon="6.26023">
        <ele>431</ele>
        <time>2022-10-11T11:58:57Z</time>
      </trkpt>
      <trkpt lat="46.27019" lon="6.26028">
        <ele>430</ele>
        <time>2022-10-11T11:59:01Z</time>
      </trkpt>
      <trkpt lat="46.27022" lon="6.26034">
        <ele>431</ele>
        <time>2022-10-11T11:59:04Z</time>
      </trkpt>
      <trkpt lat="46.27115" lon="6.26092">
        <ele>430</ele>
        <time>2022-10-11T11:59:31Z</time>
      </trkpt>
      <trkpt lat="46.27133" lon="6.26099">
        <ele>429</ele>
        <time>2022-10-11T11:59:39Z</time>
      </trkpt>
      <trkpt lat="46.27216" lon="6.26153">
        <ele>429</ele>
        <time>2022-10-11T12:00:10Z</time>
      </trkpt>
      <trkpt lat="46.27332" lon="6.26235">
        <ele>429</ele>
        <time>2022-10-11T12:00:42Z</time>
      </trkpt>
      <trkpt lat="46.27359" lon="6.26245">
        <ele>428</ele>
        <time>2022-10-11T12:00:50Z</time>
      </trkpt>
      <trkpt lat="46.27362" lon="6.2625">
        <ele>429</ele>
        <time>2022-10-11T12:00:52Z</time>
      </trkpt>
      <trkpt lat="46.2736" lon="6.26271">
        <ele>429</ele>
        <time>2022-10-11T12:00:57Z</time>
      </trkpt>
      <trkpt lat="46.27362" lon="6.26292">
        <ele>429</ele>
        <time>2022-10-11T12:01:01Z</time>
      </trkpt>
      <trkpt lat="46.27419" lon="6.2645">
        <ele>430</ele>
        <time>2022-10-11T12:01:33Z</time>
      </trkpt>
      <trkpt lat="46.27436" lon="6.26491">
        <ele>430</ele>
        <time>2022-10-11T12:01:41Z</time>
      </trkpt>
      <trkpt lat="46.27454" lon="6.26516">
        <ele>430</ele>
        <time>2022-10-11T12:01:47Z</time>
      </trkpt>
      <trkpt lat="46.27565" lon="6.26618">
        <ele>430</ele>
        <time>2022-10-11T12:02:18Z</time>
      </trkpt>
      <trkpt lat="46.27668" lon="6.2672">
        <ele>430</ele>
        <time>2022-10-11T12:02:49Z</time>
      </trkpt>
      <trkpt lat="46.27683" lon="6.26748">
        <ele>430</ele>
        <time>2022-10-11T12:02:55Z</time>
      </trkpt>
      <trkpt lat="46.27742" lon="6.26911">
        <ele>431</ele>
        <time>2022-10-11T12:03:27Z</time>
      </trkpt>
      <trkpt lat="46.27751" lon="6.26939">
        <ele>431</ele>
        <time>2022-10-11T12:03:33Z</time>
      </trkpt>
      <trkpt lat="46.27752" lon="6.26949">
        <ele>431</ele>
        <time>2022-10-11T12:03:35Z</time>
      </trkpt>
      <trkpt lat="46.27743" lon="6.27057">
        <ele>434</ele>
        <time>2022-10-11T12:03:57Z</time>
      </trkpt>
      <trkpt lat="46.27746" lon="6.2709">
        <ele>434</ele>
        <time>2022-10-11T12:04:05Z</time>
      </trkpt>
      <trkpt lat="46.27746" lon="6.27099">
        <ele>434</ele>
        <time>2022-10-11T12:04:07Z</time>
      </trkpt>
      <trkpt lat="46.27739" lon="6.27121">
        <ele>435</ele>
        <time>2022-10-11T12:04:13Z</time>
      </trkpt>
      <trkpt lat="46.27727" lon="6.27139">
        <ele>435</ele>
        <time>2022-10-11T12:04:18Z</time>
      </trkpt>
      <trkpt lat="46.27718" lon="6.2716">
        <ele>435</ele>
        <time>2022-10-11T12:04:24Z</time>
      </trkpt>
      <trkpt lat="46.27711" lon="6.2717">
        <ele>436</ele>
        <time>2022-10-11T12:04:27Z</time>
      </trkpt>
      <trkpt lat="46.27685" lon="6.27261">
        <ele>437</ele>
        <time>2022-10-11T12:04:42Z</time>
      </trkpt>
      <trkpt lat="46.27679" lon="6.27273">
        <ele>437</ele>
        <time>2022-10-11T12:04:47Z</time>
      </trkpt>
      <trkpt lat="46.27635" lon="6.27267">
        <ele>437</ele>
        <time>2022-10-11T12:04:58Z</time>
      </trkpt>
      <trkpt lat="46.27626" lon="6.27267">
        <ele>437</ele>
        <time>2022-10-11T12:04:59Z</time>
      </trkpt>
      <trkpt lat="46.27525" lon="6.27196">
        <ele>436</ele>
        <time>2022-10-11T12:05:26Z</time>
      </trkpt>
      <trkpt lat="46.27462" lon="6.27148">
        <ele>436</ele>
        <time>2022-10-11T12:05:44Z</time>
      </trkpt>
      <trkpt lat="46.27392" lon="6.27098">
        <ele>436</ele>
        <time>2022-10-11T12:06:02Z</time>
      </trkpt>
      <trkpt lat="46.27384" lon="6.27095">
        <ele>436</ele>
        <time>2022-10-11T12:06:04Z</time>
      </trkpt>
      <trkpt lat="46.27377" lon="6.27096">
        <ele>436</ele>
        <time>2022-10-11T12:06:06Z</time>
      </trkpt>
      <trkpt lat="46.2737" lon="6.27092">
        <ele>436</ele>
        <time>2022-10-11T12:06:08Z</time>
      </trkpt>
      <trkpt lat="46.27345" lon="6.27067">
        <ele>437</ele>
        <time>2022-10-11T12:06:16Z</time>
      </trkpt>
      <trkpt lat="46.2734" lon="6.27069">
        <ele>437</ele>
        <time>2022-10-11T12:06:19Z</time>
      </trkpt>
      <trkpt lat="46.27326" lon="6.27112">
        <ele>437</ele>
        <time>2022-10-11T12:06:31Z</time>
      </trkpt>
      <trkpt lat="46.27326" lon="6.27122">
        <ele>437</ele>
        <time>2022-10-11T12:06:34Z</time>
      </trkpt>
      <trkpt lat="46.27279" lon="6.27261">
        <ele>439</ele>
        <time>2022-10-11T12:07:09Z</time>
      </trkpt>
      <trkpt lat="46.2724" lon="6.27362">
        <ele>440</ele>
        <time>2022-10-11T12:07:36Z</time>
      </trkpt>
      <trkpt lat="46.27237" lon="6.2737">
        <ele>439</ele>
        <time>2022-10-11T12:07:39Z</time>
      </trkpt>
      <trkpt lat="46.27236" lon="6.27389">
        <ele>439</ele>
        <time>2022-10-11T12:07:43Z</time>
      </trkpt>
      <trkpt lat="46.27184" lon="6.27246">
        <ele>438</ele>
        <time>2022-10-11T12:08:12Z</time>
      </trkpt>
      <trkpt lat="46.27155" lon="6.27187">
        <ele>438</ele>
        <time>2022-10-11T12:08:23Z</time>
      </trkpt>
      <trkpt lat="46.27145" lon="6.27174">
        <ele>438</ele>
        <time>2022-10-11T12:08:26Z</time>
      </trkpt>
      <trkpt lat="46.2714" lon="6.2717">
        <ele>438</ele>
        <time>2022-10-11T12:08:27Z</time>
      </trkpt>
      <trkpt lat="46.27086" lon="6.27099">
        <ele>438</ele>
        <time>2022-10-11T12:08:43Z</time>
      </trkpt>
      <trkpt lat="46.27063" lon="6.27085">
        <ele>438</ele>
        <time>2022-10-11T12:08:49Z</time>
      </trkpt>
      <trkpt lat="46.27057" lon="6.27079">
        <ele>439</ele>
        <time>2022-10-11T12:08:51Z</time>
      </trkpt>
      <trkpt lat="46.27056" lon="6.27067">
        <ele>439</ele>
        <time>2022-10-11T12:08:53Z</time>
      </trkpt>
      <trkpt lat="46.2706" lon="6.27044">
        <ele>439</ele>
        <time>2022-10-11T12:08:57Z</time>
      </trkpt>
      <trkpt lat="46.27077" lon="6.27005">
        <ele>439</ele>
        <time>2022-10-11T12:09:04Z</time>
      </trkpt>
      <trkpt lat="46.27084" lon="6.26999">
        <ele>439</ele>
        <time>2022-10-11T12:09:06Z</time>
      </trkpt>
      <trkpt lat="46.27091" lon="6.26999">
        <ele>439</ele>
        <time>2022-10-11T12:09:08Z</time>
      </trkpt>
      <trkpt lat="46.27096" lon="6.27">
        <ele>439</ele>
        <time>2022-10-11T12:09:10Z</time>
      </trkpt>
      <trkpt lat="46.27106" lon="6.27009">
        <ele>439</ele>
        <time>2022-10-11T12:09:14Z</time>
      </trkpt>
      <trkpt lat="46.27133" lon="6.27024">
        <ele>439</ele>
        <time>2022-10-11T12:09:24Z</time>
      </trkpt>
      <trkpt lat="46.27138" lon="6.27029">
        <ele>439</ele>
        <time>2022-10-11T12:09:27Z</time>
      </trkpt>
      <trkpt lat="46.27144" lon="6.2704">
        <ele>439</ele>
        <time>2022-10-11T12:09:31Z</time>
      </trkpt>
      <trkpt lat="46.27145" lon="6.27046">
        <ele>439</ele>
        <time>2022-10-11T12:09:35Z</time>
      </trkpt>
      <trkpt lat="46.27152" lon="6.27049">
        <ele>439</ele>
        <time>2022-10-11T12:09:48Z</time>
      </trkpt>
      <trkpt lat="46.27156" lon="6.27042">
        <ele>439</ele>
        <time>2022-10-11T12:09:51Z</time>
      </trkpt>
      <trkpt lat="46.27152" lon="6.27035">
        <ele>439</ele>
        <time>2022-10-11T12:09:53Z</time>
      </trkpt>
      <trkpt lat="46.27146" lon="6.27038">
        <ele>439</ele>
        <time>2022-10-11T12:09:55Z</time>
      </trkpt>
      <trkpt lat="46.27144" lon="6.27047">
        <ele>439</ele>
        <time>2022-10-11T12:09:57Z</time>
      </trkpt>
      <trkpt lat="46.27141" lon="6.27054">
        <ele>439</ele>
        <time>2022-10-11T12:09:59Z</time>
      </trkpt>
      <trkpt lat="46.27137" lon="6.27055">
        <ele>439</ele>
        <time>2022-10-11T12:10:01Z</time>
      </trkpt>
      <trkpt lat="46.27137" lon="6.27057">
        <ele>438</ele>
        <time>2022-10-11T12:10:36Z</time>
      </trkpt>
      <trkpt lat="46.27139" lon="6.27063">
        <ele>438</ele>
        <time>2022-10-11T12:10:39Z</time>
      </trkpt>
      <trkpt lat="46.27137" lon="6.27072">
        <ele>438</ele>
        <time>2022-10-11T12:10:42Z</time>
      </trkpt>
      <trkpt lat="46.27131" lon="6.27074">
        <ele>438</ele>
        <time>2022-10-11T12:10:46Z</time>
      </trkpt>
      <trkpt lat="46.27132" lon="6.27071">
        <ele>437</ele>
        <time>2022-10-11T12:11:55Z</time>
      </trkpt>
      <trkpt lat="46.27136" lon="6.27067">
        <ele>437</ele>
        <time>2022-10-11T12:11:58Z</time>
      </trkpt>
      <trkpt lat="46.27138" lon="6.27059">
        <ele>437</ele>
        <time>2022-10-11T12:12:00Z</time>
      </trkpt>
      <trkpt lat="46.27139" lon="6.27052">
        <ele>437</ele>
        <time>2022-10-11T12:12:02Z</time>
      </trkpt>
      <trkpt lat="46.27135" lon="6.27046">
        <ele>437</ele>
        <time>2022-10-11T12:12:05Z</time>
      </trkpt>
      <trkpt lat="46.27116" lon="6.27036">
        <ele>438</ele>
        <time>2022-10-11T12:12:16Z</time>
      </trkpt>
      <trkpt lat="46.27123" lon="6.27039">
        <ele>437</ele>
        <time>2022-10-11T12:12:33Z</time>
      </trkpt>
      <trkpt lat="46.27132" lon="6.27051">
        <ele>437</ele>
        <time>2022-10-11T12:12:41Z</time>
      </trkpt>
      <trkpt lat="46.2714" lon="6.27053">
        <ele>439</ele>
        <time>2022-10-11T12:30:47Z</time>
      </trkpt>
      <trkpt lat="46.27146" lon="6.27051">
        <ele>439</ele>
        <time>2022-10-11T12:30:50Z</time>
      </trkpt>
      <trkpt lat="46.2715" lon="6.27046">
        <ele>439</ele>
        <time>2022-10-11T12:30:52Z</time>
      </trkpt>
      <trkpt lat="46.27152" lon="6.2704">
        <ele>439</ele>
        <time>2022-10-11T12:30:54Z</time>
      </trkpt>
      <trkpt lat="46.27149" lon="6.27032">
        <ele>439</ele>
        <time>2022-10-11T12:30:56Z</time>
      </trkpt>
      <trkpt lat="46.2709" lon="6.26995">
        <ele>439</ele>
        <time>2022-10-11T12:31:14Z</time>
      </trkpt>
      <trkpt lat="46.27082" lon="6.26993">
        <ele>439</ele>
        <time>2022-10-11T12:31:16Z</time>
      </trkpt>
      <trkpt lat="46.27075" lon="6.26997">
        <ele>439</ele>
        <time>2022-10-11T12:31:18Z</time>
      </trkpt>
      <trkpt lat="46.27069" lon="6.27006">
        <ele>439</ele>
        <time>2022-10-11T12:31:20Z</time>
      </trkpt>
      <trkpt lat="46.27056" lon="6.27057">
        <ele>439</ele>
        <time>2022-10-11T12:31:30Z</time>
      </trkpt>
      <trkpt lat="46.27051" lon="6.27066">
        <ele>439</ele>
        <time>2022-10-11T12:31:32Z</time>
      </trkpt>
      <trkpt lat="46.27045" lon="6.27073">
        <ele>439</ele>
        <time>2022-10-11T12:31:34Z</time>
      </trkpt>
      <trkpt lat="46.27031" lon="6.27065">
        <ele>438</ele>
        <time>2022-10-11T12:31:37Z</time>
      </trkpt>
      <trkpt lat="46.26907" lon="6.26934">
        <ele>438</ele>
        <time>2022-10-11T12:32:08Z</time>
      </trkpt>
      <trkpt lat="46.26824" lon="6.26844">
        <ele>438</ele>
        <time>2022-10-11T12:32:28Z</time>
      </trkpt>
      <trkpt lat="46.26818" lon="6.26831">
        <ele>438</ele>
        <time>2022-10-11T12:32:30Z</time>
      </trkpt>
      <trkpt lat="46.26816" lon="6.26823">
        <ele>438</ele>
        <time>2022-10-11T12:32:31Z</time>
      </trkpt>
      <trkpt lat="46.26815" lon="6.26807">
        <ele>437</ele>
        <time>2022-10-11T12:32:33Z</time>
      </trkpt>
      <trkpt lat="46.26818" lon="6.26792">
        <ele>437</ele>
        <time>2022-10-11T12:32:35Z</time>
      </trkpt>
      <trkpt lat="46.26822" lon="6.26782">
        <ele>437</ele>
        <time>2022-10-11T12:32:37Z</time>
      </trkpt>
      <trkpt lat="46.26824" lon="6.26772">
        <ele>437</ele>
        <time>2022-10-11T12:32:39Z</time>
      </trkpt>
      <trkpt lat="46.26819" lon="6.26766">
        <ele>437</ele>
        <time>2022-10-11T12:32:41Z</time>
      </trkpt>
      <trkpt lat="46.26803" lon="6.26768">
        <ele>437</ele>
        <time>2022-10-11T12:32:45Z</time>
      </trkpt>
      <trkpt lat="46.26795" lon="6.26771">
        <ele>437</ele>
        <time>2022-10-11T12:32:47Z</time>
      </trkpt>
      <trkpt lat="46.26789" lon="6.26779">
        <ele>437</ele>
        <time>2022-10-11T12:32:49Z</time>
      </trkpt>
      <trkpt lat="46.26803" lon="6.26867">
        <ele>436</ele>
        <time>2022-10-11T12:32:59Z</time>
      </trkpt>
      <trkpt lat="46.26797" lon="6.27047">
        <ele>432</ele>
        <time>2022-10-11T12:33:18Z</time>
      </trkpt>
      <trkpt lat="46.2679" lon="6.27084">
        <ele>433</ele>
        <time>2022-10-11T12:33:23Z</time>
      </trkpt>
      <trkpt lat="46.26786" lon="6.27095">
        <ele>433</ele>
        <time>2022-10-11T12:33:25Z</time>
      </trkpt>
      <trkpt lat="46.26778" lon="6.27099">
        <ele>433</ele>
        <time>2022-10-11T12:33:27Z</time>
      </trkpt>
      <trkpt lat="46.26773" lon="6.27099">
        <ele>433</ele>
        <time>2022-10-11T12:33:28Z</time>
      </trkpt>
      <trkpt lat="46.2669" lon="6.27025">
        <ele>433</ele>
        <time>2022-10-11T12:33:47Z</time>
      </trkpt>
      <trkpt lat="46.26675" lon="6.27006">
        <ele>433</ele>
        <time>2022-10-11T12:33:53Z</time>
      </trkpt>
      <trkpt lat="46.2667" lon="6.27003">
        <ele>434</ele>
        <time>2022-10-11T12:33:55Z</time>
      </trkpt>
      <trkpt lat="46.26665" lon="6.27008">
        <ele>434</ele>
        <time>2022-10-11T12:33:57Z</time>
      </trkpt>
      <trkpt lat="46.26658" lon="6.27037">
        <ele>435</ele>
        <time>2022-10-11T12:34:03Z</time>
      </trkpt>
      <trkpt lat="46.26655" lon="6.27068">
        <ele>437</ele>
        <time>2022-10-11T12:34:09Z</time>
      </trkpt>
      <trkpt lat="46.26644" lon="6.2711">
        <ele>441</ele>
        <time>2022-10-11T12:34:17Z</time>
      </trkpt>
      <trkpt lat="46.26635" lon="6.27127">
        <ele>442</ele>
        <time>2022-10-11T12:34:21Z</time>
      </trkpt>
      <trkpt lat="46.26623" lon="6.2714">
        <ele>443</ele>
        <time>2022-10-11T12:34:25Z</time>
      </trkpt>
      <trkpt lat="46.26619" lon="6.27151">
        <ele>443</ele>
        <time>2022-10-11T12:34:27Z</time>
      </trkpt>
      <trkpt lat="46.26617" lon="6.2721">
        <ele>444</ele>
        <time>2022-10-11T12:34:36Z</time>
      </trkpt>
      <trkpt lat="46.26617" lon="6.27249">
        <ele>445</ele>
        <time>2022-10-11T12:34:42Z</time>
      </trkpt>
      <trkpt lat="46.26608" lon="6.27449">
        <ele>448</ele>
        <time>2022-10-11T12:35:13Z</time>
      </trkpt>
      <trkpt lat="46.26611" lon="6.27532">
        <ele>449</ele>
        <time>2022-10-11T12:35:25Z</time>
      </trkpt>
      <trkpt lat="46.26608" lon="6.27538">
        <ele>449</ele>
        <time>2022-10-11T12:35:26Z</time>
      </trkpt>
      <trkpt lat="46.26543" lon="6.27631">
        <ele>451</ele>
        <time>2022-10-11T12:35:49Z</time>
      </trkpt>
      <trkpt lat="46.26538" lon="6.27635">
        <ele>451</ele>
        <time>2022-10-11T12:35:52Z</time>
      </trkpt>
      <trkpt lat="46.26533" lon="6.2763">
        <ele>451</ele>
        <time>2022-10-11T12:35:54Z</time>
      </trkpt>
      <trkpt lat="46.2647" lon="6.27459">
        <ele>451</ele>
        <time>2022-10-11T12:36:26Z</time>
      </trkpt>
      <trkpt lat="46.26439" lon="6.27401">
        <ele>450</ele>
        <time>2022-10-11T12:36:38Z</time>
      </trkpt>
      <trkpt lat="46.26403" lon="6.27355">
        <ele>450</ele>
        <time>2022-10-11T12:36:50Z</time>
      </trkpt>
      <trkpt lat="46.26382" lon="6.27304">
        <ele>449</ele>
        <time>2022-10-11T12:36:59Z</time>
      </trkpt>
      <trkpt lat="46.26333" lon="6.27156">
        <ele>448</ele>
        <time>2022-10-11T12:37:25Z</time>
      </trkpt>
      <trkpt lat="46.26298" lon="6.27112">
        <ele>448</ele>
        <time>2022-10-11T12:37:36Z</time>
      </trkpt>
      <trkpt lat="46.26292" lon="6.27083">
        <ele>448</ele>
        <time>2022-10-11T12:37:41Z</time>
      </trkpt>
      <trkpt lat="46.26283" lon="6.27027">
        <ele>447</ele>
        <time>2022-10-11T12:37:50Z</time>
      </trkpt>
      <trkpt lat="46.26275" lon="6.26996">
        <ele>447</ele>
        <time>2022-10-11T12:37:55Z</time>
      </trkpt>
      <trkpt lat="46.26265" lon="6.2698">
        <ele>447</ele>
        <time>2022-10-11T12:37:58Z</time>
      </trkpt>
      <trkpt lat="46.2624" lon="6.26953">
        <ele>447</ele>
        <time>2022-10-11T12:38:06Z</time>
      </trkpt>
      <trkpt lat="46.26234" lon="6.26948">
        <ele>447</ele>
        <time>2022-10-11T12:38:08Z</time>
      </trkpt>
      <trkpt lat="46.26229" lon="6.26943">
        <ele>447</ele>
        <time>2022-10-11T12:38:10Z</time>
      </trkpt>
      <trkpt lat="46.26226" lon="6.26936">
        <ele>447</ele>
        <time>2022-10-11T12:38:12Z</time>
      </trkpt>
      <trkpt lat="46.26242" lon="6.26892">
        <ele>446</ele>
        <time>2022-10-11T12:38:20Z</time>
      </trkpt>
      <trkpt lat="46.26243" lon="6.26881">
        <ele>446</ele>
        <time>2022-10-11T12:38:22Z</time>
      </trkpt>
      <trkpt lat="46.26239" lon="6.26863">
        <ele>446</ele>
        <time>2022-10-11T12:38:25Z</time>
      </trkpt>
      <trkpt lat="46.26158" lon="6.26766">
        <ele>446</ele>
        <time>2022-10-11T12:38:51Z</time>
      </trkpt>
      <trkpt lat="46.26053" lon="6.26673">
        <ele>447</ele>
        <time>2022-10-11T12:39:22Z</time>
      </trkpt>
      <trkpt lat="46.26039" lon="6.26659">
        <ele>448</ele>
        <time>2022-10-11T12:39:26Z</time>
      </trkpt>
      <trkpt lat="46.26006" lon="6.26591">
        <ele>448</ele>
        <time>2022-10-11T12:39:38Z</time>
      </trkpt>
      <trkpt lat="46.25989" lon="6.26578">
        <ele>447</ele>
        <time>2022-10-11T12:39:42Z</time>
      </trkpt>
      <trkpt lat="46.2597" lon="6.26568">
        <ele>447</ele>
        <time>2022-10-11T12:39:47Z</time>
      </trkpt>
      <trkpt lat="46.25964" lon="6.26562">
        <ele>446</ele>
        <time>2022-10-11T12:39:49Z</time>
      </trkpt>
      <trkpt lat="46.2596" lon="6.26551">
        <ele>446</ele>
        <time>2022-10-11T12:39:51Z</time>
      </trkpt>
      <trkpt lat="46.25961" lon="6.26544">
        <ele>446</ele>
        <time>2022-10-11T12:39:52Z</time>
      </trkpt>
      <trkpt lat="46.25972" lon="6.26466">
        <ele>446</ele>
        <time>2022-10-11T12:40:05Z</time>
      </trkpt>
      <trkpt lat="46.25973" lon="6.26458">
        <ele>446</ele>
        <time>2022-10-11T12:40:07Z</time>
      </trkpt>
      <trkpt lat="46.25968" lon="6.26451">
        <ele>445</ele>
        <time>2022-10-11T12:40:09Z</time>
      </trkpt>
      <trkpt lat="46.25916" lon="6.2641">
        <ele>446</ele>
        <time>2022-10-11T12:40:25Z</time>
      </trkpt>
      <trkpt lat="46.25895" lon="6.26411">
        <ele>446</ele>
        <time>2022-10-11T12:40:30Z</time>
      </trkpt>
      <trkpt lat="46.25789" lon="6.2639">
        <ele>448</ele>
        <time>2022-10-11T12:40:53Z</time>
      </trkpt>
      <trkpt lat="46.25767" lon="6.26382">
        <ele>448</ele>
        <time>2022-10-11T12:40:59Z</time>
      </trkpt>
      <trkpt lat="46.25761" lon="6.26382">
        <ele>448</ele>
        <time>2022-10-11T12:41:01Z</time>
      </trkpt>
      <trkpt lat="46.25701" lon="6.2656">
        <ele>451</ele>
        <time>2022-10-11T12:41:32Z</time>
      </trkpt>
      <trkpt lat="46.25659" lon="6.26664">
        <ele>452</ele>
        <time>2022-10-11T12:41:49Z</time>
      </trkpt>
      <trkpt lat="46.25618" lon="6.26728">
        <ele>454</ele>
        <time>2022-10-11T12:42:01Z</time>
      </trkpt>
      <trkpt lat="46.25543" lon="6.2691">
        <ele>456</ele>
        <time>2022-10-11T12:42:33Z</time>
      </trkpt>
      <trkpt lat="46.25465" lon="6.27071">
        <ele>459</ele>
        <time>2022-10-11T12:43:04Z</time>
      </trkpt>
      <trkpt lat="46.25382" lon="6.2721">
        <ele>461</ele>
        <time>2022-10-11T12:43:36Z</time>
      </trkpt>
      <trkpt lat="46.25368" lon="6.27236">
        <ele>462</ele>
        <time>2022-10-11T12:43:42Z</time>
      </trkpt>
      <trkpt lat="46.25333" lon="6.27273">
        <ele>464</ele>
        <time>2022-10-11T12:43:54Z</time>
      </trkpt>
      <trkpt lat="46.25278" lon="6.27323">
        <ele>465</ele>
        <time>2022-10-11T12:44:09Z</time>
      </trkpt>
      <trkpt lat="46.25259" lon="6.27353">
        <ele>465</ele>
        <time>2022-10-11T12:44:16Z</time>
      </trkpt>
      <trkpt lat="46.25254" lon="6.27358">
        <ele>465</ele>
        <time>2022-10-11T12:44:18Z</time>
      </trkpt>
      <trkpt lat="46.25245" lon="6.27364">
        <ele>467</ele>
        <time>2022-10-11T12:44:22Z</time>
      </trkpt>
      <trkpt lat="46.25233" lon="6.27379">
        <ele>468</ele>
        <time>2022-10-11T12:44:29Z</time>
      </trkpt>
      <trkpt lat="46.25228" lon="6.27381">
        <ele>468</ele>
        <time>2022-10-11T12:44:31Z</time>
      </trkpt>
      <trkpt lat="46.25223" lon="6.2738">
        <ele>469</ele>
        <time>2022-10-11T12:44:33Z</time>
      </trkpt>
      <trkpt lat="46.25213" lon="6.27367">
        <ele>469</ele>
        <time>2022-10-11T12:44:37Z</time>
      </trkpt>
      <trkpt lat="46.25206" lon="6.27352">
        <ele>468</ele>
        <time>2022-10-11T12:44:41Z</time>
      </trkpt>
      <trkpt lat="46.25188" lon="6.27335">
        <ele>468</ele>
        <time>2022-10-11T12:44:47Z</time>
      </trkpt>
      <trkpt lat="46.25183" lon="6.2733">
        <ele>468</ele>
        <time>2022-10-11T12:44:49Z</time>
      </trkpt>
      <trkpt lat="46.25178" lon="6.27325">
        <ele>468</ele>
        <time>2022-10-11T12:44:53Z</time>
      </trkpt>
      <trkpt lat="46.25176" lon="6.27333">
        <ele>468</ele>
        <time>2022-10-11T12:45:03Z</time>
      </trkpt>
      <trkpt lat="46.2517" lon="6.27337">
        <ele>467</ele>
        <time>2022-10-11T12:45:06Z</time>
      </trkpt>
      <trkpt lat="46.25054" lon="6.27452">
        <ele>464</ele>
        <time>2022-10-11T12:45:38Z</time>
      </trkpt>
      <trkpt lat="46.25048" lon="6.27454">
        <ele>463</ele>
        <time>2022-10-11T12:45:42Z</time>
      </trkpt>
      <trkpt lat="46.25027" lon="6.27446">
        <ele>462</ele>
        <time>2022-10-11T12:45:52Z</time>
      </trkpt>
      <trkpt lat="46.25015" lon="6.27431">
        <ele>462</ele>
        <time>2022-10-11T12:46:04Z</time>
      </trkpt>
      <trkpt lat="46.25016" lon="6.27415">
        <ele>462</ele>
        <time>2022-10-11T12:46:10Z</time>
      </trkpt>
      <trkpt lat="46.25009" lon="6.27399">
        <ele>462</ele>
        <time>2022-10-11T12:46:13Z</time>
      </trkpt>
      <trkpt lat="46.24999" lon="6.27384">
        <ele>463</ele>
        <time>2022-10-11T12:46:17Z</time>
      </trkpt>
      <trkpt lat="46.24989" lon="6.27346">
        <ele>462</ele>
        <time>2022-10-11T12:46:27Z</time>
      </trkpt>
      <trkpt lat="46.24955" lon="6.27289">
        <ele>462</ele>
        <time>2022-10-11T12:46:46Z</time>
      </trkpt>
      <trkpt lat="46.24953" lon="6.27282">
        <ele>462</ele>
        <time>2022-10-11T12:46:48Z</time>
      </trkpt>
      <trkpt lat="46.24948" lon="6.27275">
        <ele>462</ele>
        <time>2022-10-11T12:46:51Z</time>
      </trkpt>
      <trkpt lat="46.24925" lon="6.27195">
        <ele>462</ele>
        <time>2022-10-11T12:47:13Z</time>
      </trkpt>
      <trkpt lat="46.24924" lon="6.27185">
        <ele>462</ele>
        <time>2022-10-11T12:47:18Z</time>
      </trkpt>
      <trkpt lat="46.24924" lon="6.27177">
        <ele>462</ele>
        <time>2022-10-11T12:47:29Z</time>
      </trkpt>
      <trkpt lat="46.24912" lon="6.27145">
        <ele>462</ele>
        <time>2022-10-11T12:47:38Z</time>
      </trkpt>
      <trkpt lat="46.24905" lon="6.2713">
        <ele>462</ele>
        <time>2022-10-11T12:47:42Z</time>
      </trkpt>
      <trkpt lat="46.24895" lon="6.27106">
        <ele>462</ele>
        <time>2022-10-11T12:47:48Z</time>
      </trkpt>
      <trkpt lat="46.24888" lon="6.27092">
        <ele>462</ele>
        <time>2022-10-11T12:47:52Z</time>
      </trkpt>
      <trkpt lat="46.24873" lon="6.27043">
        <ele>462</ele>
        <time>2022-10-11T12:48:07Z</time>
      </trkpt>
      <trkpt lat="46.24845" lon="6.26999">
        <ele>462</ele>
        <time>2022-10-11T12:48:21Z</time>
      </trkpt>
      <trkpt lat="46.24822" lon="6.26926">
        <ele>462</ele>
        <time>2022-10-11T12:48:42Z</time>
      </trkpt>
      <trkpt lat="46.24795" lon="6.26817">
        <ele>462</ele>
        <time>2022-10-11T12:49:11Z</time>
      </trkpt>
      <trkpt lat="46.24788" lon="6.26795">
        <ele>462</ele>
        <time>2022-10-11T12:49:18Z</time>
      </trkpt>
      <trkpt lat="46.24783" lon="6.26795">
        <ele>462</ele>
        <time>2022-10-11T12:49:23Z</time>
      </trkpt>
      <trkpt lat="46.24783" lon="6.26802">
        <ele>462</ele>
        <time>2022-10-11T12:49:26Z</time>
      </trkpt>
      <trkpt lat="46.24802" lon="6.26876">
        <ele>463</ele>
        <time>2022-10-11T12:49:54Z</time>
      </trkpt>
      <trkpt lat="46.24824" lon="6.26979">
        <ele>464</ele>
        <time>2022-10-11T12:50:16Z</time>
      </trkpt>
      <trkpt lat="46.24837" lon="6.27007">
        <ele>464</ele>
        <time>2022-10-11T12:50:22Z</time>
      </trkpt>
      <trkpt lat="46.24854" lon="6.27038">
        <ele>464</ele>
        <time>2022-10-11T12:50:30Z</time>
      </trkpt>
      <trkpt lat="46.2491" lon="6.27183">
        <ele>464</ele>
        <time>2022-10-11T12:51:02Z</time>
      </trkpt>
      <trkpt lat="46.24954" lon="6.27326">
        <ele>465</ele>
        <time>2022-10-11T12:51:30Z</time>
      </trkpt>
      <trkpt lat="46.24987" lon="6.27386">
        <ele>464</ele>
        <time>2022-10-11T12:51:44Z</time>
      </trkpt>
      <trkpt lat="46.25003" lon="6.2744">
        <ele>465</ele>
        <time>2022-10-11T12:51:56Z</time>
      </trkpt>
      <trkpt lat="46.2502" lon="6.27474">
        <ele>465</ele>
        <time>2022-10-11T12:52:04Z</time>
      </trkpt>
      <trkpt lat="46.25024" lon="6.27478">
        <ele>465</ele>
        <time>2022-10-11T12:52:06Z</time>
      </trkpt>
      <trkpt lat="46.25037" lon="6.27481">
        <ele>465</ele>
        <time>2022-10-11T12:52:10Z</time>
      </trkpt>
      <trkpt lat="46.25041" lon="6.27486">
        <ele>465</ele>
        <time>2022-10-11T12:52:12Z</time>
      </trkpt>
      <trkpt lat="46.25044" lon="6.27492">
        <ele>464</ele>
        <time>2022-10-11T12:52:14Z</time>
      </trkpt>
      <trkpt lat="46.2505" lon="6.27502">
        <ele>465</ele>
        <time>2022-10-11T12:53:17Z</time>
      </trkpt>
      <trkpt lat="46.25081" lon="6.27617">
        <ele>466</ele>
        <time>2022-10-11T12:53:38Z</time>
      </trkpt>
      <trkpt lat="46.2509" lon="6.27631">
        <ele>466</ele>
        <time>2022-10-11T12:53:42Z</time>
      </trkpt>
      <trkpt lat="46.25089" lon="6.2764">
        <ele>466</ele>
        <time>2022-10-11T12:53:46Z</time>
      </trkpt>
      <trkpt lat="46.25028" lon="6.27716">
        <ele>467</ele>
        <time>2022-10-11T12:54:12Z</time>
      </trkpt>
      <trkpt lat="46.25022" lon="6.27729">
        <ele>467</ele>
        <time>2022-10-11T12:54:16Z</time>
      </trkpt>
      <trkpt lat="46.25015" lon="6.27731">
        <ele>468</ele>
        <time>2022-10-11T12:54:21Z</time>
      </trkpt>
      <trkpt lat="46.2501" lon="6.27725">
        <ele>468</ele>
        <time>2022-10-11T12:54:23Z</time>
      </trkpt>
      <trkpt lat="46.25004" lon="6.27721">
        <ele>468</ele>
        <time>2022-10-11T12:54:25Z</time>
      </trkpt>
      <trkpt lat="46.24997" lon="6.27721">
        <ele>468</ele>
        <time>2022-10-11T12:54:27Z</time>
      </trkpt>
      <trkpt lat="46.24991" lon="6.27725">
        <ele>468</ele>
        <time>2022-10-11T12:54:29Z</time>
      </trkpt>
      <trkpt lat="46.24888" lon="6.27856">
        <ele>471</ele>
        <time>2022-10-11T12:55:01Z</time>
      </trkpt>
      <trkpt lat="46.24882" lon="6.27859">
        <ele>471</ele>
        <time>2022-10-11T12:55:03Z</time>
      </trkpt>
      <trkpt lat="46.24878" lon="6.27864">
        <ele>471</ele>
        <time>2022-10-11T12:55:05Z</time>
      </trkpt>
      <trkpt lat="46.24871" lon="6.27875">
        <ele>471</ele>
        <time>2022-10-11T12:55:09Z</time>
      </trkpt>
      <trkpt lat="46.2487" lon="6.27884">
        <ele>471</ele>
        <time>2022-10-11T12:55:12Z</time>
      </trkpt>
      <trkpt lat="46.24872" lon="6.2789">
        <ele>472</ele>
        <time>2022-10-11T12:55:14Z</time>
      </trkpt>
      <trkpt lat="46.24901" lon="6.27911">
        <ele>471</ele>
        <time>2022-10-11T12:55:22Z</time>
      </trkpt>
      <trkpt lat="46.24906" lon="6.27918">
        <ele>471</ele>
        <time>2022-10-11T12:55:24Z</time>
      </trkpt>
      <trkpt lat="46.24912" lon="6.27933">
        <ele>471</ele>
        <time>2022-10-11T12:55:30Z</time>
      </trkpt>
      <trkpt lat="46.24916" lon="6.27941">
        <ele>471</ele>
        <time>2022-10-11T12:55:35Z</time>
      </trkpt>
      <trkpt lat="46.24917" lon="6.27949">
        <ele>471</ele>
        <time>2022-10-11T12:55:51Z</time>
      </trkpt>
      <trkpt lat="46.24919" lon="6.27978">
        <ele>472</ele>
        <time>2022-10-11T12:56:02Z</time>
      </trkpt>
      <trkpt lat="46.24921" lon="6.27984">
        <ele>472</ele>
        <time>2022-10-11T12:56:04Z</time>
      </trkpt>
      <trkpt lat="46.24926" lon="6.27991">
        <ele>472</ele>
        <time>2022-10-11T12:56:06Z</time>
      </trkpt>
      <trkpt lat="46.24963" lon="6.28071">
        <ele>472</ele>
        <time>2022-10-11T12:56:25Z</time>
      </trkpt>
      <trkpt lat="46.25035" lon="6.28198">
        <ele>473</ele>
        <time>2022-10-11T12:56:53Z</time>
      </trkpt>
      <trkpt lat="46.25046" lon="6.28224">
        <ele>473</ele>
        <time>2022-10-11T12:56:58Z</time>
      </trkpt>
      <trkpt lat="46.25091" lon="6.283">
        <ele>473</ele>
        <time>2022-10-11T12:57:18Z</time>
      </trkpt>
      <trkpt lat="46.25099" lon="6.28316">
        <ele>473</ele>
        <time>2022-10-11T12:57:21Z</time>
      </trkpt>
      <trkpt lat="46.25099" lon="6.28332">
        <ele>473</ele>
        <time>2022-10-11T12:57:24Z</time>
      </trkpt>
      <trkpt lat="46.25059" lon="6.28402">
        <ele>474</ele>
        <time>2022-10-11T12:57:43Z</time>
      </trkpt>
      <trkpt lat="46.25041" lon="6.28419">
        <ele>474</ele>
        <time>2022-10-11T12:57:48Z</time>
      </trkpt>
      <trkpt lat="46.25014" lon="6.2845">
        <ele>475</ele>
        <time>2022-10-11T12:57:59Z</time>
      </trkpt>
      <trkpt lat="46.24998" lon="6.2846">
        <ele>475</ele>
        <time>2022-10-11T12:58:03Z</time>
      </trkpt>
      <trkpt lat="46.24968" lon="6.28503">
        <ele>476</ele>
        <time>2022-10-11T12:58:15Z</time>
      </trkpt>
      <trkpt lat="46.24959" lon="6.28526">
        <ele>476</ele>
        <time>2022-10-11T12:58:21Z</time>
      </trkpt>
      <trkpt lat="46.24942" lon="6.28551">
        <ele>477</ele>
        <time>2022-10-11T12:58:29Z</time>
      </trkpt>
      <trkpt lat="46.24939" lon="6.28554">
        <ele>477</ele>
        <time>2022-10-11T12:58:31Z</time>
      </trkpt>
      <trkpt lat="46.24916" lon="6.28559">
        <ele>477</ele>
        <time>2022-10-11T12:58:38Z</time>
      </trkpt>
      <trkpt lat="46.2491" lon="6.28562">
        <ele>477</ele>
        <time>2022-10-11T12:58:40Z</time>
      </trkpt>
      <trkpt lat="46.24902" lon="6.28573">
        <ele>478</ele>
        <time>2022-10-11T12:58:44Z</time>
      </trkpt>
      <trkpt lat="46.24891" lon="6.28585">
        <ele>478</ele>
        <time>2022-10-11T12:58:50Z</time>
      </trkpt>
      <trkpt lat="46.24889" lon="6.2859">
        <ele>478</ele>
        <time>2022-10-11T12:59:05Z</time>
      </trkpt>
      <trkpt lat="46.24885" lon="6.28595">
        <ele>478</ele>
        <time>2022-10-11T12:59:09Z</time>
      </trkpt>
      <trkpt lat="46.24883" lon="6.28609">
        <ele>478</ele>
        <time>2022-10-11T12:59:27Z</time>
      </trkpt>
      <trkpt lat="46.24879" lon="6.28616">
        <ele>478</ele>
        <time>2022-10-11T12:59:29Z</time>
      </trkpt>
      <trkpt lat="46.24872" lon="6.28621">
        <ele>478</ele>
        <time>2022-10-11T12:59:31Z</time>
      </trkpt>
      <trkpt lat="46.24794" lon="6.28722">
        <ele>479</ele>
        <time>2022-10-11T13:00:01Z</time>
      </trkpt>
      <trkpt lat="46.24779" lon="6.28736">
        <ele>480</ele>
        <time>2022-10-11T13:00:07Z</time>
      </trkpt>
      <trkpt lat="46.24773" lon="6.28738">
        <ele>480</ele>
        <time>2022-10-11T13:00:09Z</time>
      </trkpt>
      <trkpt lat="46.24729" lon="6.28779">
        <ele>481</ele>
        <time>2022-10-11T13:00:23Z</time>
      </trkpt>
      <trkpt lat="46.24721" lon="6.28792">
        <ele>481</ele>
        <time>2022-10-11T13:00:27Z</time>
      </trkpt>
      <trkpt lat="46.24679" lon="6.28898">
        <ele>482</ele>
        <time>2022-10-11T13:00:51Z</time>
      </trkpt>
      <trkpt lat="46.24674" lon="6.28908">
        <ele>482</ele>
        <time>2022-10-11T13:00:53Z</time>
      </trkpt>
      <trkpt lat="46.24655" lon="6.28946">
        <ele>483</ele>
        <time>2022-10-11T13:01:01Z</time>
      </trkpt>
      <trkpt lat="46.24647" lon="6.28967">
        <ele>483</ele>
        <time>2022-10-11T13:01:05Z</time>
      </trkpt>
      <trkpt lat="46.24636" lon="6.29001">
        <ele>484</ele>
        <time>2022-10-11T13:01:13Z</time>
      </trkpt>
      <trkpt lat="46.24617" lon="6.2904">
        <ele>484</ele>
        <time>2022-10-11T13:01:22Z</time>
      </trkpt>
      <trkpt lat="46.24558" lon="6.29106">
        <ele>487</ele>
        <time>2022-10-11T13:01:40Z</time>
      </trkpt>
      <trkpt lat="46.24549" lon="6.29113">
        <ele>487</ele>
        <time>2022-10-11T13:01:43Z</time>
      </trkpt>
      <trkpt lat="46.24527" lon="6.29143">
        <ele>488</ele>
        <time>2022-10-11T13:01:50Z</time>
      </trkpt>
      <trkpt lat="46.24511" lon="6.29158">
        <ele>488</ele>
        <time>2022-10-11T13:01:56Z</time>
      </trkpt>
      <trkpt lat="46.24504" lon="6.29167">
        <ele>488</ele>
        <time>2022-10-11T13:01:59Z</time>
      </trkpt>
      <trkpt lat="46.24476" lon="6.29189">
        <ele>489</ele>
        <time>2022-10-11T13:02:07Z</time>
      </trkpt>
      <trkpt lat="46.24472" lon="6.29192">
        <ele>489</ele>
        <time>2022-10-11T13:02:08Z</time>
      </trkpt>
      <trkpt lat="46.24463" lon="6.29204">
        <ele>489</ele>
        <time>2022-10-11T13:02:11Z</time>
      </trkpt>
      <trkpt lat="46.24454" lon="6.2923">
        <ele>490</ele>
        <time>2022-10-11T13:02:17Z</time>
      </trkpt>
      <trkpt lat="46.24455" lon="6.29241">
        <ele>490</ele>
        <time>2022-10-11T13:02:21Z</time>
      </trkpt>
      <trkpt lat="46.24457" lon="6.29246">
        <ele>490</ele>
        <time>2022-10-11T13:02:23Z</time>
      </trkpt>
      <trkpt lat="46.24461" lon="6.29259">
        <ele>490</ele>
        <time>2022-10-11T13:02:27Z</time>
      </trkpt>
      <trkpt lat="46.24472" lon="6.29282">
        <ele>490</ele>
        <time>2022-10-11T13:02:32Z</time>
      </trkpt>
      <trkpt lat="46.24494" lon="6.29305">
        <ele>489</ele>
        <time>2022-10-11T13:02:38Z</time>
      </trkpt>
      <trkpt lat="46.24519" lon="6.29328">
        <ele>489</ele>
        <time>2022-10-11T13:02:45Z</time>
      </trkpt>
      <trkpt lat="46.24561" lon="6.29398">
        <ele>489</ele>
        <time>2022-10-11T13:03:00Z</time>
      </trkpt>
      <trkpt lat="46.24578" lon="6.29435">
        <ele>489</ele>
        <time>2022-10-11T13:03:09Z</time>
      </trkpt>
      <trkpt lat="46.24601" lon="6.2947">
        <ele>489</ele>
        <time>2022-10-11T13:03:19Z</time>
      </trkpt>
      <trkpt lat="46.24635" lon="6.29492">
        <ele>489</ele>
        <time>2022-10-11T13:03:28Z</time>
      </trkpt>
      <trkpt lat="46.24675" lon="6.29516">
        <ele>488</ele>
        <time>2022-10-11T13:03:36Z</time>
      </trkpt>
      <trkpt lat="46.24691" lon="6.29527">
        <ele>488</ele>
        <time>2022-10-11T13:03:40Z</time>
      </trkpt>
      <trkpt lat="46.24758" lon="6.29571">
        <ele>486</ele>
        <time>2022-10-11T13:03:59Z</time>
      </trkpt>
      <trkpt lat="46.24769" lon="6.29574">
        <ele>485</ele>
        <time>2022-10-11T13:04:01Z</time>
      </trkpt>
      <trkpt lat="46.24782" lon="6.29573">
        <ele>485</ele>
        <time>2022-10-11T13:04:03Z</time>
      </trkpt>
      <trkpt lat="46.24822" lon="6.29572">
        <ele>484</ele>
        <time>2022-10-11T13:04:09Z</time>
      </trkpt>
      <trkpt lat="46.24848" lon="6.29581">
        <ele>483</ele>
        <time>2022-10-11T13:04:13Z</time>
      </trkpt>
      <trkpt lat="46.24857" lon="6.29588">
        <ele>482</ele>
        <time>2022-10-11T13:04:15Z</time>
      </trkpt>
      <trkpt lat="46.24876" lon="6.296">
        <ele>482</ele>
        <time>2022-10-11T13:04:20Z</time>
      </trkpt>
      <trkpt lat="46.24884" lon="6.29607">
        <ele>482</ele>
        <time>2022-10-11T13:04:22Z</time>
      </trkpt>
      <trkpt lat="46.24898" lon="6.29616">
        <ele>483</ele>
        <time>2022-10-11T13:04:26Z</time>
      </trkpt>
      <trkpt lat="46.25007" lon="6.29686">
        <ele>486</ele>
        <time>2022-10-11T13:04:57Z</time>
      </trkpt>
      <trkpt lat="46.25109" lon="6.29752">
        <ele>486</ele>
        <time>2022-10-11T13:05:24Z</time>
      </trkpt>
      <trkpt lat="46.25156" lon="6.29803">
        <ele>486</ele>
        <time>2022-10-11T13:05:37Z</time>
      </trkpt>
      <trkpt lat="46.25178" lon="6.29836">
        <ele>486</ele>
        <time>2022-10-11T13:05:45Z</time>
      </trkpt>
      <trkpt lat="46.25224" lon="6.29883">
        <ele>486</ele>
        <time>2022-10-11T13:05:59Z</time>
      </trkpt>
      <trkpt lat="46.25312" lon="6.29943">
        <ele>486</ele>
        <time>2022-10-11T13:06:20Z</time>
      </trkpt>
      <trkpt lat="46.25392" lon="6.29966">
        <ele>486</ele>
        <time>2022-10-11T13:06:39Z</time>
      </trkpt>
      <trkpt lat="46.25417" lon="6.29969">
        <ele>486</ele>
        <time>2022-10-11T13:06:46Z</time>
      </trkpt>
      <trkpt lat="46.25424" lon="6.29968">
        <ele>486</ele>
        <time>2022-10-11T13:06:48Z</time>
      </trkpt>
      <trkpt lat="46.25428" lon="6.29965">
        <ele>485</ele>
        <time>2022-10-11T13:06:50Z</time>
      </trkpt>
      <trkpt lat="46.2543" lon="6.29959">
        <ele>485</ele>
        <time>2022-10-11T13:06:52Z</time>
      </trkpt>
      <trkpt lat="46.25444" lon="6.29799">
        <ele>483</ele>
        <time>2022-10-11T13:07:24Z</time>
      </trkpt>
      <trkpt lat="46.25444" lon="6.29785">
        <ele>483</ele>
        <time>2022-10-11T13:07:26Z</time>
      </trkpt>
      <trkpt lat="46.25462" lon="6.29646">
        <ele>480</ele>
        <time>2022-10-11T13:07:48Z</time>
      </trkpt>
      <trkpt lat="46.25462" lon="6.29631">
        <ele>480</ele>
        <time>2022-10-11T13:07:50Z</time>
      </trkpt>
      <trkpt lat="46.25463" lon="6.29615">
        <ele>479</ele>
        <time>2022-10-11T13:07:52Z</time>
      </trkpt>
      <trkpt lat="46.2547" lon="6.29604">
        <ele>479</ele>
        <time>2022-10-11T13:07:55Z</time>
      </trkpt>
      <trkpt lat="46.25473" lon="6.2958">
        <ele>478</ele>
        <time>2022-10-11T13:07:58Z</time>
      </trkpt>
      <trkpt lat="46.255" lon="6.29522">
        <ele>477</ele>
        <time>2022-10-11T13:08:08Z</time>
      </trkpt>
      <trkpt lat="46.25507" lon="6.29505">
        <ele>476</ele>
        <time>2022-10-11T13:08:11Z</time>
      </trkpt>
      <trkpt lat="46.25518" lon="6.29497">
        <ele>476</ele>
        <time>2022-10-11T13:08:15Z</time>
      </trkpt>
      <trkpt lat="46.25515" lon="6.29488">
        <ele>475</ele>
        <time>2022-10-11T13:08:18Z</time>
      </trkpt>
      <trkpt lat="46.25518" lon="6.29478">
        <ele>475</ele>
        <time>2022-10-11T13:08:36Z</time>
      </trkpt>
      <trkpt lat="46.25518" lon="6.2947">
        <ele>475</ele>
        <time>2022-10-11T13:08:40Z</time>
      </trkpt>
      <trkpt lat="46.25515" lon="6.29474">
        <ele>475</ele>
        <time>2022-10-11T13:08:49Z</time>
      </trkpt>
      <trkpt lat="46.25517" lon="6.29493">
        <ele>475</ele>
        <time>2022-10-11T13:08:54Z</time>
      </trkpt>
      <trkpt lat="46.25525" lon="6.29519">
        <ele>476</ele>
        <time>2022-10-11T13:08:59Z</time>
      </trkpt>
      <trkpt lat="46.25541" lon="6.29541">
        <ele>476</ele>
        <time>2022-10-11T13:09:05Z</time>
      </trkpt>
      <trkpt lat="46.25562" lon="6.29555">
        <ele>476</ele>
        <time>2022-10-11T13:09:09Z</time>
      </trkpt>
      <trkpt lat="46.25581" lon="6.29579">
        <ele>476</ele>
        <time>2022-10-11T13:09:15Z</time>
      </trkpt>
      <trkpt lat="46.25584" lon="6.29586">
        <ele>476</ele>
        <time>2022-10-11T13:09:18Z</time>
      </trkpt>
      <trkpt lat="46.25587" lon="6.29591">
        <ele>476</ele>
        <time>2022-10-11T13:09:20Z</time>
      </trkpt>
      <trkpt lat="46.25603" lon="6.29642">
        <ele>477</ele>
        <time>2022-10-11T13:09:30Z</time>
      </trkpt>
      <trkpt lat="46.25609" lon="6.2965">
        <ele>477</ele>
        <time>2022-10-11T13:09:32Z</time>
      </trkpt>
      <trkpt lat="46.25721" lon="6.29729">
        <ele>480</ele>
        <time>2022-10-11T13:10:03Z</time>
      </trkpt>
      <trkpt lat="46.25795" lon="6.29779">
        <ele>479</ele>
        <time>2022-10-11T13:10:23Z</time>
      </trkpt>
      <trkpt lat="46.25801" lon="6.29786">
        <ele>478</ele>
        <time>2022-10-11T13:10:25Z</time>
      </trkpt>
      <trkpt lat="46.25804" lon="6.29795">
        <ele>478</ele>
        <time>2022-10-11T13:10:27Z</time>
      </trkpt>
      <trkpt lat="46.25804" lon="6.29802">
        <ele>478</ele>
        <time>2022-10-11T13:10:29Z</time>
      </trkpt>
      <trkpt lat="46.25803" lon="6.29812">
        <ele>478</ele>
        <time>2022-10-11T13:10:35Z</time>
      </trkpt>
      <trkpt lat="46.25798" lon="6.2982">
        <ele>478</ele>
        <time>2022-10-11T13:11:15Z</time>
      </trkpt>
      <trkpt lat="46.25759" lon="6.29959">
        <ele>482</ele>
        <time>2022-10-11T13:11:47Z</time>
      </trkpt>
      <trkpt lat="46.25714" lon="6.30131">
        <ele>486</ele>
        <time>2022-10-11T13:12:19Z</time>
      </trkpt>
      <trkpt lat="46.25669" lon="6.3029">
        <ele>489</ele>
        <time>2022-10-11T13:12:51Z</time>
      </trkpt>
      <trkpt lat="46.25622" lon="6.30421">
        <ele>492</ele>
        <time>2022-10-11T13:13:21Z</time>
      </trkpt>
      <trkpt lat="46.25581" lon="6.30482">
        <ele>490</ele>
        <time>2022-10-11T13:13:33Z</time>
      </trkpt>
      <trkpt lat="46.25576" lon="6.30503">
        <ele>490</ele>
        <time>2022-10-11T13:13:36Z</time>
      </trkpt>
      <trkpt lat="46.25565" lon="6.30599">
        <ele>494</ele>
        <time>2022-10-11T13:13:51Z</time>
      </trkpt>
      <trkpt lat="46.25564" lon="6.30655">
        <ele>496</ele>
        <time>2022-10-11T13:14:00Z</time>
      </trkpt>
      <trkpt lat="46.2555" lon="6.30706">
        <ele>498</ele>
        <time>2022-10-11T13:14:10Z</time>
      </trkpt>
      <trkpt lat="46.25548" lon="6.30723">
        <ele>498</ele>
        <time>2022-10-11T13:14:12Z</time>
      </trkpt>
      <trkpt lat="46.25535" lon="6.30756">
        <ele>500</ele>
        <time>2022-10-11T13:14:18Z</time>
      </trkpt>
      <trkpt lat="46.25525" lon="6.30776">
        <ele>500</ele>
        <time>2022-10-11T13:14:22Z</time>
      </trkpt>
      <trkpt lat="46.2552" lon="6.30821">
        <ele>502</ele>
        <time>2022-10-11T13:14:31Z</time>
      </trkpt>
      <trkpt lat="46.25522" lon="6.30843">
        <ele>503</ele>
        <time>2022-10-11T13:14:35Z</time>
      </trkpt>
      <trkpt lat="46.25456" lon="6.31023">
        <ele>509</ele>
        <time>2022-10-11T13:15:07Z</time>
      </trkpt>
      <trkpt lat="46.2539" lon="6.31177">
        <ele>516</ele>
        <time>2022-10-11T13:15:38Z</time>
      </trkpt>
      <trkpt lat="46.25358" lon="6.31251">
        <ele>519</ele>
        <time>2022-10-11T13:15:57Z</time>
      </trkpt>
      <trkpt lat="46.25356" lon="6.31261">
        <ele>519</ele>
        <time>2022-10-11T13:15:59Z</time>
      </trkpt>
      <trkpt lat="46.25356" lon="6.31272">
        <ele>519</ele>
        <time>2022-10-11T13:16:01Z</time>
      </trkpt>
      <trkpt lat="46.25359" lon="6.31281">
        <ele>520</ele>
        <time>2022-10-11T13:16:03Z</time>
      </trkpt>
      <trkpt lat="46.25392" lon="6.31315">
        <ele>520</ele>
        <time>2022-10-11T13:16:12Z</time>
      </trkpt>
      <trkpt lat="46.25508" lon="6.31422">
        <ele>521</ele>
        <time>2022-10-11T13:16:41Z</time>
      </trkpt>
      <trkpt lat="46.25512" lon="6.31428">
        <ele>521</ele>
        <time>2022-10-11T13:16:43Z</time>
      </trkpt>
      <trkpt lat="46.25515" lon="6.31436">
        <ele>521</ele>
        <time>2022-10-11T13:16:45Z</time>
      </trkpt>
      <trkpt lat="46.25505" lon="6.31461">
        <ele>521</ele>
        <time>2022-10-11T13:16:51Z</time>
      </trkpt>
      <trkpt lat="46.25418" lon="6.31629">
        <ele>525</ele>
        <time>2022-10-11T13:17:22Z</time>
      </trkpt>
      <trkpt lat="46.25346" lon="6.3178">
        <ele>529</ele>
        <time>2022-10-11T13:17:54Z</time>
      </trkpt>
      <trkpt lat="46.25271" lon="6.31941">
        <ele>533</ele>
        <time>2022-10-11T13:18:26Z</time>
      </trkpt>
      <trkpt lat="46.25259" lon="6.31967">
        <ele>534</ele>
        <time>2022-10-11T13:18:32Z</time>
      </trkpt>
      <trkpt lat="46.25214" lon="6.32041">
        <ele>535</ele>
        <time>2022-10-11T13:18:55Z</time>
      </trkpt>
      <trkpt lat="46.2521" lon="6.32048">
        <ele>535</ele>
        <time>2022-10-11T13:18:58Z</time>
      </trkpt>
      <trkpt lat="46.25212" lon="6.32054">
        <ele>535</ele>
        <time>2022-10-11T13:19:02Z</time>
      </trkpt>
      <trkpt lat="46.25273" lon="6.3195">
        <ele>534</ele>
        <time>2022-10-11T13:19:26Z</time>
      </trkpt>
      <trkpt lat="46.2528" lon="6.3194">
        <ele>534</ele>
        <time>2022-10-11T13:19:32Z</time>
      </trkpt>
      <trkpt lat="46.25388" lon="6.31693">
        <ele>528</ele>
        <time>2022-10-11T13:20:03Z</time>
      </trkpt>
      <trkpt lat="46.2551" lon="6.31456">
        <ele>522</ele>
        <time>2022-10-11T13:20:31Z</time>
      </trkpt>
      <trkpt lat="46.25512" lon="6.31448">
        <ele>521</ele>
        <time>2022-10-11T13:20:32Z</time>
      </trkpt>
      <trkpt lat="46.25513" lon="6.3144">
        <ele>521</ele>
        <time>2022-10-11T13:20:33Z</time>
      </trkpt>
      <trkpt lat="46.2551" lon="6.31431">
        <ele>521</ele>
        <time>2022-10-11T13:20:34Z</time>
      </trkpt>
      <trkpt lat="46.2536" lon="6.31283">
        <ele>519</ele>
        <time>2022-10-11T13:21:02Z</time>
      </trkpt>
      <trkpt lat="46.25356" lon="6.31275">
        <ele>519</ele>
        <time>2022-10-11T13:21:03Z</time>
      </trkpt>
      <trkpt lat="46.25354" lon="6.31265">
        <ele>519</ele>
        <time>2022-10-11T13:21:04Z</time>
      </trkpt>
      <trkpt lat="46.25355" lon="6.31256">
        <ele>519</ele>
        <time>2022-10-11T13:21:05Z</time>
      </trkpt>
      <trkpt lat="46.25471" lon="6.30985">
        <ele>508</ele>
        <time>2022-10-11T13:21:36Z</time>
      </trkpt>
      <trkpt lat="46.25517" lon="6.30878">
        <ele>505</ele>
        <time>2022-10-11T13:21:48Z</time>
      </trkpt>
      <trkpt lat="46.25522" lon="6.30846">
        <ele>505</ele>
        <time>2022-10-11T13:21:51Z</time>
      </trkpt>
      <trkpt lat="46.25531" lon="6.30792">
        <ele>503</ele>
        <time>2022-10-11T13:21:56Z</time>
      </trkpt>
      <trkpt lat="46.25558" lon="6.30691">
        <ele>499</ele>
        <time>2022-10-11T13:22:05Z</time>
      </trkpt>
      <trkpt lat="46.2556" lon="6.30679">
        <ele>499</ele>
        <time>2022-10-11T13:22:06Z</time>
      </trkpt>
      <trkpt lat="46.25577" lon="6.30518">
        <ele>494</ele>
        <time>2022-10-11T13:22:18Z</time>
      </trkpt>
      <trkpt lat="46.25582" lon="6.3049">
        <ele>492</ele>
        <time>2022-10-11T13:22:20Z</time>
      </trkpt>
      <trkpt lat="46.25594" lon="6.30468">
        <ele>491</ele>
        <time>2022-10-11T13:22:22Z</time>
      </trkpt>
      <trkpt lat="46.25616" lon="6.30437">
        <ele>490</ele>
        <time>2022-10-11T13:22:26Z</time>
      </trkpt>
      <trkpt lat="46.25647" lon="6.30372">
        <ele>491</ele>
        <time>2022-10-11T13:22:35Z</time>
      </trkpt>
      <trkpt lat="46.25714" lon="6.30124">
        <ele>486</ele>
        <time>2022-10-11T13:23:06Z</time>
      </trkpt>
      <trkpt lat="46.25774" lon="6.29901">
        <ele>481</ele>
        <time>2022-10-11T13:23:37Z</time>
      </trkpt>
      <trkpt lat="46.25805" lon="6.29803">
        <ele>477</ele>
        <time>2022-10-11T13:23:51Z</time>
      </trkpt>
      <trkpt lat="46.25812" lon="6.29798">
        <ele>477</ele>
        <time>2022-10-11T13:23:53Z</time>
      </trkpt>
      <trkpt lat="46.25867" lon="6.29821">
        <ele>477</ele>
        <time>2022-10-11T13:24:06Z</time>
      </trkpt>
      <trkpt lat="46.25886" lon="6.29812">
        <ele>477</ele>
        <time>2022-10-11T13:24:10Z</time>
      </trkpt>
      <trkpt lat="46.25891" lon="6.2981">
        <ele>477</ele>
        <time>2022-10-11T13:24:11Z</time>
      </trkpt>
      <trkpt lat="46.25918" lon="6.29818">
        <ele>476</ele>
        <time>2022-10-11T13:24:15Z</time>
      </trkpt>
      <trkpt lat="46.26031" lon="6.29881">
        <ele>477</ele>
        <time>2022-10-11T13:24:37Z</time>
      </trkpt>
      <trkpt lat="46.26059" lon="6.2988">
        <ele>476</ele>
        <time>2022-10-11T13:24:43Z</time>
      </trkpt>
      <trkpt lat="46.26176" lon="6.29858">
        <ele>473</ele>
        <time>2022-10-11T13:25:05Z</time>
      </trkpt>
      <trkpt lat="46.26193" lon="6.29857">
        <ele>473</ele>
        <time>2022-10-11T13:25:08Z</time>
      </trkpt>
      <trkpt lat="46.26236" lon="6.2987">
        <ele>474</ele>
        <time>2022-10-11T13:25:18Z</time>
      </trkpt>
      <trkpt lat="46.26272" lon="6.29894">
        <ele>474</ele>
        <time>2022-10-11T13:25:26Z</time>
      </trkpt>
      <trkpt lat="46.26279" lon="6.29904">
        <ele>474</ele>
        <time>2022-10-11T13:25:29Z</time>
      </trkpt>
      <trkpt lat="46.26306" lon="6.29924">
        <ele>475</ele>
        <time>2022-10-11T13:25:39Z</time>
      </trkpt>
      <trkpt lat="46.26311" lon="6.29922">
        <ele>475</ele>
        <time>2022-10-11T13:25:41Z</time>
      </trkpt>
      <trkpt lat="46.26316" lon="6.29916">
        <ele>475</ele>
        <time>2022-10-11T13:25:43Z</time>
      </trkpt>
      <trkpt lat="46.26338" lon="6.29877">
        <ele>475</ele>
        <time>2022-10-11T13:25:50Z</time>
      </trkpt>
      <trkpt lat="46.26358" lon="6.29839">
        <ele>473</ele>
        <time>2022-10-11T13:25:55Z</time>
      </trkpt>
      <trkpt lat="46.26369" lon="6.29811">
        <ele>472</ele>
        <time>2022-10-11T13:25:58Z</time>
      </trkpt>
      <trkpt lat="46.26392" lon="6.29782">
        <ele>471</ele>
        <time>2022-10-11T13:26:04Z</time>
      </trkpt>
      <trkpt lat="46.26396" lon="6.29779">
        <ele>470</ele>
        <time>2022-10-11T13:26:06Z</time>
      </trkpt>
      <trkpt lat="46.26398" lon="6.29771">
        <ele>470</ele>
        <time>2022-10-11T13:26:10Z</time>
      </trkpt>
      <trkpt lat="46.26393" lon="6.29773">
        <ele>470</ele>
        <time>2022-10-11T13:26:34Z</time>
      </trkpt>
      <trkpt lat="46.26383" lon="6.29791">
        <ele>470</ele>
        <time>2022-10-11T13:26:44Z</time>
      </trkpt>
      <trkpt lat="46.26373" lon="6.29802">
        <ele>470</ele>
        <time>2022-10-11T13:26:48Z</time>
      </trkpt>
      <trkpt lat="46.26369" lon="6.29815">
        <ele>471</ele>
        <time>2022-10-11T13:26:52Z</time>
      </trkpt>
      <trkpt lat="46.26361" lon="6.29828">
        <ele>471</ele>
        <time>2022-10-11T13:26:56Z</time>
      </trkpt>
      <trkpt lat="46.26337" lon="6.29889">
        <ele>473</ele>
        <time>2022-10-11T13:27:12Z</time>
      </trkpt>
      <trkpt lat="46.26326" lon="6.29915">
        <ele>474</ele>
        <time>2022-10-11T13:27:18Z</time>
      </trkpt>
      <trkpt lat="46.26325" lon="6.29923">
        <ele>475</ele>
        <time>2022-10-11T13:27:20Z</time>
      </trkpt>
      <trkpt lat="46.26329" lon="6.29931">
        <ele>475</ele>
        <time>2022-10-11T13:27:24Z</time>
      </trkpt>
      <trkpt lat="46.26334" lon="6.29934">
        <ele>475</ele>
        <time>2022-10-11T13:27:27Z</time>
      </trkpt>
      <trkpt lat="46.26338" lon="6.29938">
        <ele>475</ele>
        <time>2022-10-11T13:27:29Z</time>
      </trkpt>
      <trkpt lat="46.26355" lon="6.29956">
        <ele>474</ele>
        <time>2022-10-11T13:27:37Z</time>
      </trkpt>
      <trkpt lat="46.2636" lon="6.29962">
        <ele>474</ele>
        <time>2022-10-11T13:27:40Z</time>
      </trkpt>
      <trkpt lat="46.26396" lon="6.29992">
        <ele>475</ele>
        <time>2022-10-11T13:27:55Z</time>
      </trkpt>
      <trkpt lat="46.26408" lon="6.30005">
        <ele>475</ele>
        <time>2022-10-11T13:28:00Z</time>
      </trkpt>
      <trkpt lat="46.26417" lon="6.30015">
        <ele>475</ele>
        <time>2022-10-11T13:28:06Z</time>
      </trkpt>
      <trkpt lat="46.26422" lon="6.3002">
        <ele>475</ele>
        <time>2022-10-11T13:28:08Z</time>
      </trkpt>
      <trkpt lat="46.26432" lon="6.30028">
        <ele>475</ele>
        <time>2022-10-11T13:28:12Z</time>
      </trkpt>
      <trkpt lat="46.26467" lon="6.30061">
        <ele>476</ele>
        <time>2022-10-11T13:28:25Z</time>
      </trkpt>
      <trkpt lat="46.26504" lon="6.30118">
        <ele>477</ele>
        <time>2022-10-11T13:28:41Z</time>
      </trkpt>
      <trkpt lat="46.26514" lon="6.30126">
        <ele>477</ele>
        <time>2022-10-11T13:28:44Z</time>
      </trkpt>
      <trkpt lat="46.26521" lon="6.30135">
        <ele>477</ele>
        <time>2022-10-11T13:28:47Z</time>
      </trkpt>
      <trkpt lat="46.26527" lon="6.3015">
        <ele>478</ele>
        <time>2022-10-11T13:28:51Z</time>
      </trkpt>
      <trkpt lat="46.2653" lon="6.30158">
        <ele>478</ele>
        <time>2022-10-11T13:28:53Z</time>
      </trkpt>
      <trkpt lat="46.26532" lon="6.30166">
        <ele>478</ele>
        <time>2022-10-11T13:28:55Z</time>
      </trkpt>
      <trkpt lat="46.26533" lon="6.30172">
        <ele>478</ele>
        <time>2022-10-11T13:28:58Z</time>
      </trkpt>
      <trkpt lat="46.26546" lon="6.30193">
        <ele>479</ele>
        <time>2022-10-11T13:29:06Z</time>
      </trkpt>
      <trkpt lat="46.26555" lon="6.30205">
        <ele>479</ele>
        <time>2022-10-11T13:29:11Z</time>
      </trkpt>
      <trkpt lat="46.26564" lon="6.30228">
        <ele>480</ele>
        <time>2022-10-11T13:29:17Z</time>
      </trkpt>
      <trkpt lat="46.26584" lon="6.30266">
        <ele>480</ele>
        <time>2022-10-11T13:29:28Z</time>
      </trkpt>
      <trkpt lat="46.26588" lon="6.30281">
        <ele>480</ele>
        <time>2022-10-11T13:29:32Z</time>
      </trkpt>
      <trkpt lat="46.26598" lon="6.30295">
        <ele>480</ele>
        <time>2022-10-11T13:29:36Z</time>
      </trkpt>
      <trkpt lat="46.26602" lon="6.30301">
        <ele>480</ele>
        <time>2022-10-11T13:29:39Z</time>
      </trkpt>
      <trkpt lat="46.26609" lon="6.30321">
        <ele>480</ele>
        <time>2022-10-11T13:29:53Z</time>
      </trkpt>
      <trkpt lat="46.26617" lon="6.30326">
        <ele>480</ele>
        <time>2022-10-11T13:30:01Z</time>
      </trkpt>
      <trkpt lat="46.2662" lon="6.30337">
        <ele>480</ele>
        <time>2022-10-11T13:30:15Z</time>
      </trkpt>
      <trkpt lat="46.26628" lon="6.30343">
        <ele>480</ele>
        <time>2022-10-11T13:30:22Z</time>
      </trkpt>
      <trkpt lat="46.26631" lon="6.30354">
        <ele>480</ele>
        <time>2022-10-11T13:30:36Z</time>
      </trkpt>
      <trkpt lat="46.26645" lon="6.30382">
        <ele>480</ele>
        <time>2022-10-11T13:30:43Z</time>
      </trkpt>
      <trkpt lat="46.26652" lon="6.30402">
        <ele>480</ele>
        <time>2022-10-11T13:30:49Z</time>
      </trkpt>
      <trkpt lat="46.26656" lon="6.30412">
        <ele>480</ele>
        <time>2022-10-11T13:30:52Z</time>
      </trkpt>
      <trkpt lat="46.26667" lon="6.30452">
        <ele>479</ele>
        <time>2022-10-11T13:31:03Z</time>
      </trkpt>
      <trkpt lat="46.26684" lon="6.30484">
        <ele>479</ele>
        <time>2022-10-11T13:31:15Z</time>
      </trkpt>
      <trkpt lat="46.26689" lon="6.30487">
        <ele>479</ele>
        <time>2022-10-11T13:31:26Z</time>
      </trkpt>
      <trkpt lat="46.26689" lon="6.30487">
        <ele>480</ele>
        <time>2022-10-11T13:35:59Z</time>
      </trkpt>
      <trkpt lat="46.26672" lon="6.30466">
        <ele>479</ele>
        <time>2022-10-11T13:36:10Z</time>
      </trkpt>
      <trkpt lat="46.26656" lon="6.30424">
        <ele>480</ele>
        <time>2022-10-11T13:36:27Z</time>
      </trkpt>
      <trkpt lat="46.26649" lon="6.30413">
        <ele>480</ele>
        <time>2022-10-11T13:36:31Z</time>
      </trkpt>
      <trkpt lat="46.26639" lon="6.30384">
        <ele>480</ele>
        <time>2022-10-11T13:36:45Z</time>
      </trkpt>
      <trkpt lat="46.26622" lon="6.30354">
        <ele>480</ele>
        <time>2022-10-11T13:36:59Z</time>
      </trkpt>
      <trkpt lat="46.26618" lon="6.30339">
        <ele>480</ele>
        <time>2022-10-11T13:37:06Z</time>
      </trkpt>
      <trkpt lat="46.26612" lon="6.30327">
        <ele>480</ele>
        <time>2022-10-11T13:37:12Z</time>
      </trkpt>
      <trkpt lat="46.26609" lon="6.30314">
        <ele>480</ele>
        <time>2022-10-11T13:37:25Z</time>
      </trkpt>
      <trkpt lat="46.2659" lon="6.30275">
        <ele>480</ele>
        <time>2022-10-11T13:37:40Z</time>
      </trkpt>
      <trkpt lat="46.26581" lon="6.30266">
        <ele>480</ele>
        <time>2022-10-11T13:37:44Z</time>
      </trkpt>
      <trkpt lat="46.26539" lon="6.30171">
        <ele>478</ele>
        <time>2022-10-11T13:38:16Z</time>
      </trkpt>
      <trkpt lat="46.26492" lon="6.30091">
        <ele>476</ele>
        <time>2022-10-11T13:38:43Z</time>
      </trkpt>
      <trkpt lat="46.26438" lon="6.30028">
        <ele>475</ele>
        <time>2022-10-11T13:39:04Z</time>
      </trkpt>
      <trkpt lat="46.264" lon="6.30005">
        <ele>475</ele>
        <time>2022-10-11T13:39:17Z</time>
      </trkpt>
      <trkpt lat="46.26372" lon="6.29981">
        <ele>475</ele>
        <time>2022-10-11T13:39:29Z</time>
      </trkpt>
      <trkpt lat="46.2636" lon="6.29974">
        <ele>474</ele>
        <time>2022-10-11T13:39:33Z</time>
      </trkpt>
      <trkpt lat="46.2635" lon="6.29963">
        <ele>474</ele>
        <time>2022-10-11T13:39:37Z</time>
      </trkpt>
      <trkpt lat="46.26345" lon="6.2996">
        <ele>474</ele>
        <time>2022-10-11T13:39:39Z</time>
      </trkpt>
      <trkpt lat="46.26332" lon="6.29947">
        <ele>474</ele>
        <time>2022-10-11T13:39:45Z</time>
      </trkpt>
      <trkpt lat="46.26244" lon="6.2988">
        <ele>475</ele>
        <time>2022-10-11T13:40:17Z</time>
      </trkpt>
      <trkpt lat="46.26212" lon="6.29864">
        <ele>474</ele>
        <time>2022-10-11T13:40:25Z</time>
      </trkpt>
      <trkpt lat="46.26152" lon="6.29851">
        <ele>474</ele>
        <time>2022-10-11T13:40:39Z</time>
      </trkpt>
      <trkpt lat="46.2603" lon="6.29874">
        <ele>477</ele>
        <time>2022-10-11T13:41:10Z</time>
      </trkpt>
      <trkpt lat="46.26016" lon="6.29871">
        <ele>477</ele>
        <time>2022-10-11T13:41:14Z</time>
      </trkpt>
      <trkpt lat="46.25912" lon="6.29813">
        <ele>477</ele>
        <time>2022-10-11T13:41:39Z</time>
      </trkpt>
      <trkpt lat="46.25896" lon="6.29812">
        <ele>477</ele>
        <time>2022-10-11T13:41:42Z</time>
      </trkpt>
      <trkpt lat="46.25886" lon="6.29815">
        <ele>477</ele>
        <time>2022-10-11T13:41:44Z</time>
      </trkpt>
      <trkpt lat="46.25878" lon="6.29818">
        <ele>477</ele>
        <time>2022-10-11T13:41:46Z</time>
      </trkpt>
      <trkpt lat="46.25871" lon="6.2982">
        <ele>477</ele>
        <time>2022-10-11T13:41:48Z</time>
      </trkpt>
      <trkpt lat="46.25839" lon="6.29806">
        <ele>477</ele>
        <time>2022-10-11T13:41:55Z</time>
      </trkpt>
      <trkpt lat="46.25705" lon="6.29718">
        <ele>477</ele>
        <time>2022-10-11T13:42:26Z</time>
      </trkpt>
      <trkpt lat="46.25609" lon="6.29655">
        <ele>477</ele>
        <time>2022-10-11T13:42:49Z</time>
      </trkpt>
      <trkpt lat="46.25603" lon="6.29647">
        <ele>477</ele>
        <time>2022-10-11T13:42:51Z</time>
      </trkpt>
      <trkpt lat="46.25583" lon="6.29594">
        <ele>474</ele>
        <time>2022-10-11T13:42:58Z</time>
      </trkpt>
      <trkpt lat="46.25572" lon="6.29577">
        <ele>474</ele>
        <time>2022-10-11T13:43:01Z</time>
      </trkpt>
      <trkpt lat="46.25532" lon="6.29538">
        <ele>474</ele>
        <time>2022-10-11T13:43:10Z</time>
      </trkpt>
      <trkpt lat="46.25522" lon="6.29515">
        <ele>474</ele>
        <time>2022-10-11T13:43:14Z</time>
      </trkpt>
      <trkpt lat="46.25519" lon="6.29489">
        <ele>474</ele>
        <time>2022-10-11T13:43:17Z</time>
      </trkpt>
      <trkpt lat="46.25522" lon="6.29441">
        <ele>473</ele>
        <time>2022-10-11T13:43:22Z</time>
      </trkpt>
      <trkpt lat="46.2555" lon="6.29366">
        <ele>472</ele>
        <time>2022-10-11T13:43:33Z</time>
      </trkpt>
      <trkpt lat="46.25558" lon="6.29344">
        <ele>472</ele>
        <time>2022-10-11T13:43:36Z</time>
      </trkpt>
      <trkpt lat="46.25565" lon="6.29311">
        <ele>471</ele>
        <time>2022-10-11T13:43:41Z</time>
      </trkpt>
      <trkpt lat="46.25562" lon="6.29304">
        <ele>471</ele>
        <time>2022-10-11T13:43:42Z</time>
      </trkpt>
      <trkpt lat="46.2556" lon="6.29282">
        <ele>471</ele>
        <time>2022-10-11T13:43:46Z</time>
      </trkpt>
      <trkpt lat="46.25556" lon="6.29272">
        <ele>471</ele>
        <time>2022-10-11T13:43:48Z</time>
      </trkpt>
      <trkpt lat="46.25549" lon="6.29265">
        <ele>471</ele>
        <time>2022-10-11T13:43:52Z</time>
      </trkpt>
      <trkpt lat="46.25549" lon="6.29256">
        <ele>471</ele>
        <time>2022-10-11T13:43:55Z</time>
      </trkpt>
      <trkpt lat="46.25555" lon="6.29252">
        <ele>471</ele>
        <time>2022-10-11T13:43:58Z</time>
      </trkpt>
      <trkpt lat="46.2561" lon="6.29251">
        <ele>471</ele>
        <time>2022-10-11T13:44:11Z</time>
      </trkpt>
      <trkpt lat="46.25661" lon="6.2927">
        <ele>470</ele>
        <time>2022-10-11T13:44:20Z</time>
      </trkpt>
      <trkpt lat="46.25695" lon="6.29292">
        <ele>470</ele>
        <time>2022-10-11T13:44:26Z</time>
      </trkpt>
      <trkpt lat="46.25754" lon="6.29323">
        <ele>470</ele>
        <time>2022-10-11T13:44:38Z</time>
      </trkpt>
      <trkpt lat="46.25761" lon="6.29319">
        <ele>470</ele>
        <time>2022-10-11T13:44:40Z</time>
      </trkpt>
      <trkpt lat="46.2577" lon="6.29306">
        <ele>469</ele>
        <time>2022-10-11T13:44:45Z</time>
      </trkpt>
      <trkpt lat="46.25775" lon="6.29295">
        <ele>469</ele>
        <time>2022-10-11T13:44:47Z</time>
      </trkpt>
      <trkpt lat="46.2578" lon="6.29285">
        <ele>469</ele>
        <time>2022-10-11T13:44:49Z</time>
      </trkpt>
      <trkpt lat="46.25789" lon="6.29278">
        <ele>469</ele>
        <time>2022-10-11T13:44:51Z</time>
      </trkpt>
      <trkpt lat="46.25847" lon="6.29217">
        <ele>469</ele>
        <time>2022-10-11T13:45:05Z</time>
      </trkpt>
      <trkpt lat="46.25855" lon="6.29193">
        <ele>469</ele>
        <time>2022-10-11T13:45:09Z</time>
      </trkpt>
      <trkpt lat="46.25857" lon="6.29185">
        <ele>469</ele>
        <time>2022-10-11T13:45:10Z</time>
      </trkpt>
      <trkpt lat="46.25859" lon="6.29178">
        <ele>469</ele>
        <time>2022-10-11T13:45:11Z</time>
      </trkpt>
      <trkpt lat="46.25856" lon="6.2917">
        <ele>469</ele>
        <time>2022-10-11T13:45:12Z</time>
      </trkpt>
      <trkpt lat="46.25865" lon="6.29144">
        <ele>469</ele>
        <time>2022-10-11T13:45:16Z</time>
      </trkpt>
      <trkpt lat="46.25866" lon="6.29137">
        <ele>469</ele>
        <time>2022-10-11T13:45:17Z</time>
      </trkpt>
      <trkpt lat="46.25866" lon="6.29106">
        <ele>469</ele>
        <time>2022-10-11T13:45:23Z</time>
      </trkpt>
      <trkpt lat="46.25874" lon="6.29091">
        <ele>468</ele>
        <time>2022-10-11T13:45:31Z</time>
      </trkpt>
      <trkpt lat="46.25862" lon="6.29093">
        <ele>468</ele>
        <time>2022-10-11T13:46:28Z</time>
      </trkpt>
      <trkpt lat="46.25857" lon="6.29093">
        <ele>468</ele>
        <time>2022-10-11T13:46:30Z</time>
      </trkpt>
      <trkpt lat="46.25812" lon="6.29066">
        <ele>469</ele>
        <time>2022-10-11T13:46:43Z</time>
      </trkpt>
      <trkpt lat="46.25798" lon="6.29062">
        <ele>469</ele>
        <time>2022-10-11T13:46:45Z</time>
      </trkpt>
      <trkpt lat="46.25723" lon="6.29004">
        <ele>470</ele>
        <time>2022-10-11T13:46:59Z</time>
      </trkpt>
      <trkpt lat="46.25717" lon="6.29003">
        <ele>470</ele>
        <time>2022-10-11T13:47:00Z</time>
      </trkpt>
      <trkpt lat="46.2565" lon="6.28953">
        <ele>470</ele>
        <time>2022-10-11T13:47:13Z</time>
      </trkpt>
      <trkpt lat="46.25605" lon="6.28912">
        <ele>470</ele>
        <time>2022-10-11T13:47:24Z</time>
      </trkpt>
      <trkpt lat="46.25607" lon="6.28914">
        <ele>470</ele>
        <time>2022-10-11T13:47:39Z</time>
      </trkpt>
      <trkpt lat="46.25625" lon="6.28922">
        <ele>470</ele>
        <time>2022-10-11T13:47:43Z</time>
      </trkpt>
      <trkpt lat="46.25694" lon="6.28986">
        <ele>471</ele>
        <time>2022-10-11T13:47:57Z</time>
      </trkpt>
      <trkpt lat="46.25717" lon="6.28996">
        <ele>471</ele>
        <time>2022-10-11T13:48:01Z</time>
      </trkpt>
      <trkpt lat="46.25731" lon="6.29007">
        <ele>471</ele>
        <time>2022-10-11T13:48:04Z</time>
      </trkpt>
      <trkpt lat="46.25793" lon="6.29052">
        <ele>470</ele>
        <time>2022-10-11T13:48:15Z</time>
      </trkpt>
      <trkpt lat="46.25802" lon="6.29061">
        <ele>470</ele>
        <time>2022-10-11T13:48:17Z</time>
      </trkpt>
      <trkpt lat="46.25855" lon="6.29092">
        <ele>469</ele>
        <time>2022-10-11T13:48:29Z</time>
      </trkpt>
      <trkpt lat="46.25872" lon="6.29095">
        <ele>469</ele>
        <time>2022-10-11T13:48:32Z</time>
      </trkpt>
      <trkpt lat="46.25875" lon="6.29092">
        <ele>469</ele>
        <time>2022-10-11T13:48:34Z</time>
      </trkpt>
      <trkpt lat="46.25879" lon="6.2909">
        <ele>469</ele>
        <time>2022-10-11T13:48:59Z</time>
      </trkpt>
      <trkpt lat="46.25876" lon="6.29086">
        <ele>469</ele>
        <time>2022-10-11T13:49:04Z</time>
      </trkpt>
      <trkpt lat="46.25891" lon="6.29069">
        <ele>468</ele>
        <time>2022-10-11T13:49:17Z</time>
      </trkpt>
      <trkpt lat="46.25913" lon="6.29055">
        <ele>467</ele>
        <time>2022-10-11T13:49:22Z</time>
      </trkpt>
      <trkpt lat="46.25935" lon="6.29014">
        <ele>466</ele>
        <time>2022-10-11T13:49:36Z</time>
      </trkpt>
      <trkpt lat="46.25942" lon="6.29003">
        <ele>466</ele>
        <time>2022-10-11T13:49:49Z</time>
      </trkpt>
      <trkpt lat="46.2595" lon="6.28992">
        <ele>465</ele>
        <time>2022-10-11T13:49:54Z</time>
      </trkpt>
      <trkpt lat="46.25954" lon="6.28976">
        <ele>465</ele>
        <time>2022-10-11T13:49:59Z</time>
      </trkpt>
      <trkpt lat="46.25958" lon="6.28969">
        <ele>465</ele>
        <time>2022-10-11T13:50:02Z</time>
      </trkpt>
      <trkpt lat="46.25961" lon="6.28964">
        <ele>465</ele>
        <time>2022-10-11T13:50:04Z</time>
      </trkpt>
      <trkpt lat="46.25963" lon="6.28957">
        <ele>465</ele>
        <time>2022-10-11T13:50:08Z</time>
      </trkpt>
      <trkpt lat="46.25959" lon="6.28949">
        <ele>466</ele>
        <time>2022-10-11T13:50:12Z</time>
      </trkpt>
      <trkpt lat="46.25954" lon="6.2894">
        <ele>466</ele>
        <time>2022-10-11T13:50:18Z</time>
      </trkpt>
      <trkpt lat="46.25956" lon="6.28933">
        <ele>466</ele>
        <time>2022-10-11T13:50:21Z</time>
      </trkpt>
      <trkpt lat="46.25957" lon="6.28924">
        <ele>466</ele>
        <time>2022-10-11T13:50:30Z</time>
      </trkpt>
      <trkpt lat="46.25963" lon="6.28915">
        <ele>466</ele>
        <time>2022-10-11T13:50:42Z</time>
      </trkpt>
      <trkpt lat="46.25973" lon="6.2889">
        <ele>467</ele>
        <time>2022-10-11T13:50:48Z</time>
      </trkpt>
      <trkpt lat="46.25977" lon="6.28885">
        <ele>467</ele>
        <time>2022-10-11T13:50:50Z</time>
      </trkpt>
      <trkpt lat="46.2599" lon="6.28885">
        <ele>467</ele>
        <time>2022-10-11T13:50:54Z</time>
      </trkpt>
      <trkpt lat="46.25996" lon="6.28881">
        <ele>466</ele>
        <time>2022-10-11T13:50:56Z</time>
      </trkpt>
      <trkpt lat="46.25999" lon="6.28868">
        <ele>466</ele>
        <time>2022-10-11T13:51:01Z</time>
      </trkpt>
      <trkpt lat="46.25985" lon="6.28829">
        <ele>466</ele>
        <time>2022-10-11T13:51:09Z</time>
      </trkpt>
      <trkpt lat="46.25975" lon="6.28807">
        <ele>466</ele>
        <time>2022-10-11T13:51:13Z</time>
      </trkpt>
      <trkpt lat="46.25971" lon="6.28804">
        <ele>466</ele>
        <time>2022-10-11T13:51:14Z</time>
      </trkpt>
      <trkpt lat="46.25967" lon="6.28793">
        <ele>466</ele>
        <time>2022-10-11T13:51:16Z</time>
      </trkpt>
      <trkpt lat="46.25958" lon="6.28781">
        <ele>467</ele>
        <time>2022-10-11T13:51:19Z</time>
      </trkpt>
      <trkpt lat="46.25955" lon="6.28772">
        <ele>467</ele>
        <time>2022-10-11T13:51:22Z</time>
      </trkpt>
      <trkpt lat="46.25952" lon="6.28766">
        <ele>467</ele>
        <time>2022-10-11T13:51:24Z</time>
      </trkpt>
      <trkpt lat="46.25947" lon="6.2876">
        <ele>467</ele>
        <time>2022-10-11T13:51:26Z</time>
      </trkpt>
      <trkpt lat="46.25934" lon="6.28728">
        <ele>468</ele>
        <time>2022-10-11T13:51:34Z</time>
      </trkpt>
      <trkpt lat="46.25877" lon="6.2867">
        <ele>468</ele>
        <time>2022-10-11T13:51:51Z</time>
      </trkpt>
      <trkpt lat="46.25842" lon="6.28617">
        <ele>468</ele>
        <time>2022-10-11T13:52:01Z</time>
      </trkpt>
      <trkpt lat="46.25841" lon="6.28598">
        <ele>469</ele>
        <time>2022-10-11T13:52:05Z</time>
      </trkpt>
      <trkpt lat="46.25843" lon="6.28537">
        <ele>469</ele>
        <time>2022-10-11T13:52:16Z</time>
      </trkpt>
      <trkpt lat="46.2584" lon="6.28527">
        <ele>469</ele>
        <time>2022-10-11T13:52:18Z</time>
      </trkpt>
      <trkpt lat="46.25816" lon="6.28495">
        <ele>469</ele>
        <time>2022-10-11T13:52:25Z</time>
      </trkpt>
      <trkpt lat="46.258" lon="6.28474">
        <ele>469</ele>
        <time>2022-10-11T13:52:29Z</time>
      </trkpt>
      <trkpt lat="46.25771" lon="6.28412">
        <ele>469</ele>
        <time>2022-10-11T13:52:43Z</time>
      </trkpt>
      <trkpt lat="46.25769" lon="6.28397">
        <ele>469</ele>
        <time>2022-10-11T13:52:45Z</time>
      </trkpt>
      <trkpt lat="46.2577" lon="6.28377">
        <ele>469</ele>
        <time>2022-10-11T13:52:48Z</time>
      </trkpt>
      <trkpt lat="46.25763" lon="6.28358">
        <ele>469</ele>
        <time>2022-10-11T13:52:51Z</time>
      </trkpt>
      <trkpt lat="46.25758" lon="6.28324">
        <ele>469</ele>
        <time>2022-10-11T13:52:56Z</time>
      </trkpt>
      <trkpt lat="46.25753" lon="6.28311">
        <ele>468</ele>
        <time>2022-10-11T13:52:58Z</time>
      </trkpt>
      <trkpt lat="46.25748" lon="6.28307">
        <ele>469</ele>
        <time>2022-10-11T13:52:59Z</time>
      </trkpt>
      <trkpt lat="46.25737" lon="6.28275">
        <ele>469</ele>
        <time>2022-10-11T13:53:03Z</time>
      </trkpt>
      <trkpt lat="46.25733" lon="6.28238">
        <ele>469</ele>
        <time>2022-10-11T13:53:08Z</time>
      </trkpt>
      <trkpt lat="46.25726" lon="6.28219">
        <ele>468</ele>
        <time>2022-10-11T13:53:12Z</time>
      </trkpt>
      <trkpt lat="46.25722" lon="6.28212">
        <ele>468</ele>
        <time>2022-10-11T13:53:14Z</time>
      </trkpt>
      <trkpt lat="46.2572" lon="6.28204">
        <ele>468</ele>
        <time>2022-10-11T13:53:16Z</time>
      </trkpt>
      <trkpt lat="46.25715" lon="6.28199">
        <ele>468</ele>
        <time>2022-10-11T13:53:18Z</time>
      </trkpt>
      <trkpt lat="46.25713" lon="6.28192">
        <ele>468</ele>
        <time>2022-10-11T13:53:28Z</time>
      </trkpt>
      <trkpt lat="46.25717" lon="6.28188">
        <ele>468</ele>
        <time>2022-10-11T13:53:34Z</time>
      </trkpt>
      <trkpt lat="46.25743" lon="6.28159">
        <ele>467</ele>
        <time>2022-10-11T13:53:40Z</time>
      </trkpt>
      <trkpt lat="46.2575" lon="6.28146">
        <ele>467</ele>
        <time>2022-10-11T13:53:42Z</time>
      </trkpt>
      <trkpt lat="46.25771" lon="6.28091">
        <ele>466</ele>
        <time>2022-10-11T13:53:53Z</time>
      </trkpt>
      <trkpt lat="46.25772" lon="6.28084">
        <ele>466</ele>
        <time>2022-10-11T13:53:55Z</time>
      </trkpt>
      <trkpt lat="46.25773" lon="6.28076">
        <ele>466</ele>
        <time>2022-10-11T13:53:57Z</time>
      </trkpt>
      <trkpt lat="46.25782" lon="6.28041">
        <ele>465</ele>
        <time>2022-10-11T13:54:05Z</time>
      </trkpt>
      <trkpt lat="46.25831" lon="6.27962">
        <ele>464</ele>
        <time>2022-10-11T13:54:24Z</time>
      </trkpt>
      <trkpt lat="46.25868" lon="6.27918">
        <ele>463</ele>
        <time>2022-10-11T13:54:35Z</time>
      </trkpt>
      <trkpt lat="46.25924" lon="6.27814">
        <ele>462</ele>
        <time>2022-10-11T13:54:56Z</time>
      </trkpt>
      <trkpt lat="46.25933" lon="6.27794">
        <ele>462</ele>
        <time>2022-10-11T13:55:00Z</time>
      </trkpt>
      <trkpt lat="46.25938" lon="6.27786">
        <ele>462</ele>
        <time>2022-10-11T13:55:02Z</time>
      </trkpt>
      <trkpt lat="46.25949" lon="6.27761">
        <ele>462</ele>
        <time>2022-10-11T13:55:06Z</time>
      </trkpt>
      <trkpt lat="46.25974" lon="6.2772">
        <ele>461</ele>
        <time>2022-10-11T13:55:15Z</time>
      </trkpt>
      <trkpt lat="46.25966" lon="6.27704">
        <ele>461</ele>
        <time>2022-10-11T13:55:16Z</time>
      </trkpt>
      <trkpt lat="46.25969" lon="6.27695">
        <ele>461</ele>
        <time>2022-10-11T13:55:17Z</time>
      </trkpt>
      <trkpt lat="46.25977" lon="6.27678">
        <ele>461</ele>
        <time>2022-10-11T13:55:20Z</time>
      </trkpt>
      <trkpt lat="46.25989" lon="6.27664">
        <ele>461</ele>
        <time>2022-10-11T13:55:23Z</time>
      </trkpt>
      <trkpt lat="46.25994" lon="6.27645">
        <ele>460</ele>
        <time>2022-10-11T13:55:26Z</time>
      </trkpt>
      <trkpt lat="46.25999" lon="6.27607">
        <ele>460</ele>
        <time>2022-10-11T13:55:32Z</time>
      </trkpt>
      <trkpt lat="46.25999" lon="6.27593">
        <ele>460</ele>
        <time>2022-10-11T13:55:34Z</time>
      </trkpt>
      <trkpt lat="46.25986" lon="6.27537">
        <ele>459</ele>
        <time>2022-10-11T13:55:43Z</time>
      </trkpt>
      <trkpt lat="46.25988" lon="6.27514">
        <ele>459</ele>
        <time>2022-10-11T13:55:47Z</time>
      </trkpt>
      <trkpt lat="46.25988" lon="6.27479">
        <ele>459</ele>
        <time>2022-10-11T13:55:52Z</time>
      </trkpt>
      <trkpt lat="46.25989" lon="6.2743">
        <ele>458</ele>
        <time>2022-10-11T13:55:59Z</time>
      </trkpt>
      <trkpt lat="46.25985" lon="6.27421">
        <ele>458</ele>
        <time>2022-10-11T13:56:00Z</time>
      </trkpt>
      <trkpt lat="46.25986" lon="6.27383">
        <ele>457</ele>
        <time>2022-10-11T13:56:06Z</time>
      </trkpt>
      <trkpt lat="46.2599" lon="6.27375">
        <ele>457</ele>
        <time>2022-10-11T13:56:08Z</time>
      </trkpt>
      <trkpt lat="46.25994" lon="6.27361">
        <ele>457</ele>
        <time>2022-10-11T13:56:10Z</time>
      </trkpt>
      <trkpt lat="46.25993" lon="6.27354">
        <ele>457</ele>
        <time>2022-10-11T13:56:11Z</time>
      </trkpt>
      <trkpt lat="46.25994" lon="6.2733">
        <ele>456</ele>
        <time>2022-10-11T13:56:15Z</time>
      </trkpt>
      <trkpt lat="46.2599" lon="6.27317">
        <ele>456</ele>
        <time>2022-10-11T13:56:17Z</time>
      </trkpt>
      <trkpt lat="46.25974" lon="6.27277">
        <ele>455</ele>
        <time>2022-10-11T13:56:24Z</time>
      </trkpt>
      <trkpt lat="46.2596" lon="6.27255">
        <ele>455</ele>
        <time>2022-10-11T13:56:29Z</time>
      </trkpt>
      <trkpt lat="46.25866" lon="6.2717">
        <ele>455</ele>
        <time>2022-10-11T13:56:53Z</time>
      </trkpt>
      <trkpt lat="46.2586" lon="6.27161">
        <ele>455</ele>
        <time>2022-10-11T13:56:55Z</time>
      </trkpt>
      <trkpt lat="46.25856" lon="6.27149">
        <ele>455</ele>
        <time>2022-10-11T13:56:57Z</time>
      </trkpt>
      <trkpt lat="46.2588" lon="6.27087">
        <ele>454</ele>
        <time>2022-10-11T13:57:09Z</time>
      </trkpt>
      <trkpt lat="46.25885" lon="6.27077">
        <ele>454</ele>
        <time>2022-10-11T13:57:11Z</time>
      </trkpt>
      <trkpt lat="46.25927" lon="6.26892">
        <ele>453</ele>
        <time>2022-10-11T13:57:39Z</time>
      </trkpt>
      <trkpt lat="46.2593" lon="6.26851">
        <ele>453</ele>
        <time>2022-10-11T13:57:44Z</time>
      </trkpt>
      <trkpt lat="46.25946" lon="6.26726">
        <ele>451</ele>
        <time>2022-10-11T13:58:01Z</time>
      </trkpt>
      <trkpt lat="46.25948" lon="6.26698">
        <ele>450</ele>
        <time>2022-10-11T13:58:07Z</time>
      </trkpt>
      <trkpt lat="46.2597" lon="6.26603">
        <ele>448</ele>
        <time>2022-10-11T13:58:20Z</time>
      </trkpt>
      <trkpt lat="46.25972" lon="6.26585">
        <ele>448</ele>
        <time>2022-10-11T13:58:23Z</time>
      </trkpt>
      <trkpt lat="46.25977" lon="6.26579">
        <ele>447</ele>
        <time>2022-10-11T13:58:26Z</time>
      </trkpt>
      <trkpt lat="46.25988" lon="6.26583">
        <ele>447</ele>
        <time>2022-10-11T13:58:30Z</time>
      </trkpt>
      <trkpt lat="46.26012" lon="6.26606">
        <ele>447</ele>
        <time>2022-10-11T13:58:36Z</time>
      </trkpt>
      <trkpt lat="46.26038" lon="6.26658">
        <ele>448</ele>
        <time>2022-10-11T13:58:45Z</time>
      </trkpt>
      <trkpt lat="46.26077" lon="6.267">
        <ele>448</ele>
        <time>2022-10-11T13:58:55Z</time>
      </trkpt>
      <trkpt lat="46.26164" lon="6.26775">
        <ele>445</ele>
        <time>2022-10-11T13:59:15Z</time>
      </trkpt>
      <trkpt lat="46.26237" lon="6.26868">
        <ele>445</ele>
        <time>2022-10-11T13:59:38Z</time>
      </trkpt>
      <trkpt lat="46.26242" lon="6.26877">
        <ele>445</ele>
        <time>2022-10-11T13:59:40Z</time>
      </trkpt>
      <trkpt lat="46.26244" lon="6.26888">
        <ele>445</ele>
        <time>2022-10-11T13:59:42Z</time>
      </trkpt>
      <trkpt lat="46.26243" lon="6.26899">
        <ele>445</ele>
        <time>2022-10-11T13:59:44Z</time>
      </trkpt>
      <trkpt lat="46.26229" lon="6.26936">
        <ele>445</ele>
        <time>2022-10-11T13:59:52Z</time>
      </trkpt>
      <trkpt lat="46.26228" lon="6.26942">
        <ele>446</ele>
        <time>2022-10-11T13:59:54Z</time>
      </trkpt>
      <trkpt lat="46.2623" lon="6.2695">
        <ele>446</ele>
        <time>2022-10-11T13:59:56Z</time>
      </trkpt>
      <trkpt lat="46.26262" lon="6.2698">
        <ele>446</ele>
        <time>2022-10-11T14:00:06Z</time>
      </trkpt>
      <trkpt lat="46.26271" lon="6.26993">
        <ele>446</ele>
        <time>2022-10-11T14:00:10Z</time>
      </trkpt>
      <trkpt lat="46.26282" lon="6.27027">
        <ele>446</ele>
        <time>2022-10-11T14:00:16Z</time>
      </trkpt>
      <trkpt lat="46.26296" lon="6.27108">
        <ele>447</ele>
        <time>2022-10-11T14:00:29Z</time>
      </trkpt>
      <trkpt lat="46.263" lon="6.27121">
        <ele>448</ele>
        <time>2022-10-11T14:00:31Z</time>
      </trkpt>
      <trkpt lat="46.26306" lon="6.27129">
        <ele>448</ele>
        <time>2022-10-11T14:00:33Z</time>
      </trkpt>
      <trkpt lat="46.26324" lon="6.27149">
        <ele>448</ele>
        <time>2022-10-11T14:00:39Z</time>
      </trkpt>
      <trkpt lat="46.26338" lon="6.27171">
        <ele>448</ele>
        <time>2022-10-11T14:00:45Z</time>
      </trkpt>
      <trkpt lat="46.26364" lon="6.2724">
        <ele>449</ele>
        <time>2022-10-11T14:00:58Z</time>
      </trkpt>
      <trkpt lat="46.26373" lon="6.27277">
        <ele>449</ele>
        <time>2022-10-11T14:01:04Z</time>
      </trkpt>
      <trkpt lat="46.26409" lon="6.27366">
        <ele>450</ele>
        <time>2022-10-11T14:01:19Z</time>
      </trkpt>
      <trkpt lat="46.26423" lon="6.27387">
        <ele>450</ele>
        <time>2022-10-11T14:01:24Z</time>
      </trkpt>
      <trkpt lat="46.26435" lon="6.274">
        <ele>450</ele>
        <time>2022-10-11T14:01:28Z</time>
      </trkpt>
      <trkpt lat="46.26458" lon="6.27437">
        <ele>450</ele>
        <time>2022-10-11T14:01:40Z</time>
      </trkpt>
      <trkpt lat="46.265" lon="6.27543">
        <ele>451</ele>
        <time>2022-10-11T14:02:12Z</time>
      </trkpt>
      <trkpt lat="46.26534" lon="6.27636">
        <ele>451</ele>
        <time>2022-10-11T14:02:37Z</time>
      </trkpt>
      <trkpt lat="46.26537" lon="6.27642">
        <ele>452</ele>
        <time>2022-10-11T14:02:39Z</time>
      </trkpt>
      <trkpt lat="46.26536" lon="6.27649">
        <ele>452</ele>
        <time>2022-10-11T14:02:41Z</time>
      </trkpt>
      <trkpt lat="46.26542" lon="6.27645">
        <ele>452</ele>
        <time>2022-10-11T14:04:04Z</time>
      </trkpt>
      <trkpt lat="46.26545" lon="6.27638">
        <ele>452</ele>
        <time>2022-10-11T14:04:06Z</time>
      </trkpt>
      <trkpt lat="46.26609" lon="6.27545">
        <ele>451</ele>
        <time>2022-10-11T14:04:27Z</time>
      </trkpt>
      <trkpt lat="46.26614" lon="6.27533">
        <ele>451</ele>
        <time>2022-10-11T14:04:29Z</time>
      </trkpt>
      <trkpt lat="46.26615" lon="6.2729">
        <ele>448</ele>
        <time>2022-10-11T14:05:00Z</time>
      </trkpt>
      <trkpt lat="46.26615" lon="6.27232">
        <ele>448</ele>
        <time>2022-10-11T14:05:07Z</time>
      </trkpt>
      <trkpt lat="46.26615" lon="6.27222">
        <ele>447</ele>
        <time>2022-10-11T14:05:08Z</time>
      </trkpt>
      <trkpt lat="46.26614" lon="6.27161">
        <ele>446</ele>
        <time>2022-10-11T14:05:15Z</time>
      </trkpt>
      <trkpt lat="46.26618" lon="6.27146">
        <ele>446</ele>
        <time>2022-10-11T14:05:17Z</time>
      </trkpt>
      <trkpt lat="46.26649" lon="6.271">
        <ele>445</ele>
        <time>2022-10-11T14:05:24Z</time>
      </trkpt>
      <trkpt lat="46.26659" lon="6.27072">
        <ele>444</ele>
        <time>2022-10-11T14:05:27Z</time>
      </trkpt>
      <trkpt lat="46.26664" lon="6.27033">
        <ele>441</ele>
        <time>2022-10-11T14:05:31Z</time>
      </trkpt>
      <trkpt lat="46.26664" lon="6.27008">
        <ele>439</ele>
        <time>2022-10-11T14:05:34Z</time>
      </trkpt>
      <trkpt lat="46.26668" lon="6.27001">
        <ele>437</ele>
        <time>2022-10-11T14:05:37Z</time>
      </trkpt>
      <trkpt lat="46.26674" lon="6.27003">
        <ele>436</ele>
        <time>2022-10-11T14:05:39Z</time>
      </trkpt>
      <trkpt lat="46.26689" lon="6.27025">
        <ele>435</ele>
        <time>2022-10-11T14:05:43Z</time>
      </trkpt>
      <trkpt lat="46.26778" lon="6.27106">
        <ele>435</ele>
        <time>2022-10-11T14:06:05Z</time>
      </trkpt>
      <trkpt lat="46.26783" lon="6.2711">
        <ele>435</ele>
        <time>2022-10-11T14:06:07Z</time>
      </trkpt>
      <trkpt lat="46.26789" lon="6.27107">
        <ele>435</ele>
        <time>2022-10-11T14:06:10Z</time>
      </trkpt>
      <trkpt lat="46.26807" lon="6.26993">
        <ele>435</ele>
        <time>2022-10-11T14:06:24Z</time>
      </trkpt>
      <trkpt lat="46.26806" lon="6.26807">
        <ele>438</ele>
        <time>2022-10-11T14:06:48Z</time>
      </trkpt>
      <trkpt lat="46.26809" lon="6.26788">
        <ele>438</ele>
        <time>2022-10-11T14:06:52Z</time>
      </trkpt>
      <trkpt lat="46.26805" lon="6.26771">
        <ele>438</ele>
        <time>2022-10-11T14:06:57Z</time>
      </trkpt>
      <trkpt lat="46.26755" lon="6.26661">
        <ele>439</ele>
        <time>2022-10-11T14:07:13Z</time>
      </trkpt>
      <trkpt lat="46.26748" lon="6.26623">
        <ele>438</ele>
        <time>2022-10-11T14:07:18Z</time>
      </trkpt>
      <trkpt lat="46.26747" lon="6.26601">
        <ele>438</ele>
        <time>2022-10-11T14:07:21Z</time>
      </trkpt>
      <trkpt lat="46.26761" lon="6.26503">
        <ele>437</ele>
        <time>2022-10-11T14:07:35Z</time>
      </trkpt>
      <trkpt lat="46.26765" lon="6.26467">
        <ele>436</ele>
        <time>2022-10-11T14:07:41Z</time>
      </trkpt>
      <trkpt lat="46.26762" lon="6.26461">
        <ele>436</ele>
        <time>2022-10-11T14:07:43Z</time>
      </trkpt>
      <trkpt lat="46.26774" lon="6.2636">
        <ele>435</ele>
        <time>2022-10-11T14:07:57Z</time>
      </trkpt>
      <trkpt lat="46.26792" lon="6.2628">
        <ele>434</ele>
        <time>2022-10-11T14:08:06Z</time>
      </trkpt>
      <trkpt lat="46.26817" lon="6.26227">
        <ele>434</ele>
        <time>2022-10-11T14:08:15Z</time>
      </trkpt>
      <trkpt lat="46.26828" lon="6.26215">
        <ele>433</ele>
        <time>2022-10-11T14:08:19Z</time>
      </trkpt>
      <trkpt lat="46.26834" lon="6.26198">
        <ele>433</ele>
        <time>2022-10-11T14:08:24Z</time>
      </trkpt>
      <trkpt lat="46.26834" lon="6.26191">
        <ele>433</ele>
        <time>2022-10-11T14:08:26Z</time>
      </trkpt>
      <trkpt lat="46.2683" lon="6.26184">
        <ele>433</ele>
        <time>2022-10-11T14:08:28Z</time>
      </trkpt>
      <trkpt lat="46.26823" lon="6.26156">
        <ele>433</ele>
        <time>2022-10-11T14:08:32Z</time>
      </trkpt>
      <trkpt lat="46.26822" lon="6.26129">
        <ele>432</ele>
        <time>2022-10-11T14:08:35Z</time>
      </trkpt>
      <trkpt lat="46.26858" lon="6.25952">
        <ele>430</ele>
        <time>2022-10-11T14:08:54Z</time>
      </trkpt>
      <trkpt lat="46.26864" lon="6.25938">
        <ele>430</ele>
        <time>2022-10-11T14:08:56Z</time>
      </trkpt>
      <trkpt lat="46.26872" lon="6.25914">
        <ele>430</ele>
        <time>2022-10-11T14:08:59Z</time>
      </trkpt>
      <trkpt lat="46.26888" lon="6.25896">
        <ele>430</ele>
        <time>2022-10-11T14:09:04Z</time>
      </trkpt>
      <trkpt lat="46.26901" lon="6.25893">
        <ele>430</ele>
        <time>2022-10-11T14:09:09Z</time>
      </trkpt>
      <trkpt lat="46.26909" lon="6.25883">
        <ele>430</ele>
        <time>2022-10-11T14:09:14Z</time>
      </trkpt>
      <trkpt lat="46.26903" lon="6.25852">
        <ele>430</ele>
        <time>2022-10-11T14:09:23Z</time>
      </trkpt>
      <trkpt lat="46.26915" lon="6.2582">
        <ele>430</ele>
        <time>2022-10-11T14:09:27Z</time>
      </trkpt>
      <trkpt lat="46.26896" lon="6.25806">
        <ele>429</ele>
        <time>2022-10-11T14:09:34Z</time>
      </trkpt>
      <trkpt lat="46.26885" lon="6.25812">
        <ele>429</ele>
        <time>2022-10-11T14:09:36Z</time>
      </trkpt>
      <trkpt lat="46.26859" lon="6.25796">
        <ele>429</ele>
        <time>2022-10-11T14:09:42Z</time>
      </trkpt>
      <trkpt lat="46.26851" lon="6.25782">
        <ele>429</ele>
        <time>2022-10-11T14:09:46Z</time>
      </trkpt>
      <trkpt lat="46.26847" lon="6.25754">
        <ele>428</ele>
        <time>2022-10-11T14:09:50Z</time>
      </trkpt>
      <trkpt lat="46.26843" lon="6.25764">
        <ele>428</ele>
        <time>2022-10-11T14:10:11Z</time>
      </trkpt>
      <trkpt lat="46.26829" lon="6.25786">
        <ele>429</ele>
        <time>2022-10-11T14:13:16Z</time>
      </trkpt>
    </trkseg>
  </trk>
</gpx>